M I D A S
Marine Information and Data Acquisition System
Tripno 753 of the Zeeleeuw from 2004-07-29 09:05:46 to 2004-07-29 12:11:41
Back to CruiseResearch ActivitiesStationsMapUnderway DataData graphs

EquipmentUnitsComment
TimeDGPSUTC
LatitudeDGPSDM.mWGS84
LongitudeDGPSDM.mWGS84
TemperatureSBE03/SBE38deg celciusITS90
ConductivitySBE21S/mITS90
SalinitySBE21 Practical Salinity Units
ChlorophylAChelsea fluorimeterg/lCalibrated in Aceton
Missing or incorrect values are displayed as -999
Sea surface data collected by the RV Zeeleeuw from 2004-07-29 09:05:46 to 2004-07-29 12:11:41
                                                                                    Next 1000 lines
Time Latitude Longitude Temperature Conductivity Salinity ChlorophylA
2004-07-29 09:05:56 51°11.018 2°27.173 18.154776 4.565092 34.534664 0.162614
2004-07-29 09:06:01 51°11.011 2°27.149 18.153654 4.565514 34.535806 0.128905
2004-07-29 09:06:06 51°11.005 2°27.125 18.152325 4.56583 34.535445 0.162614
2004-07-29 09:06:11 51°10.998 2°27.101 18.154444 4.566147 34.534475 0.095195
2004-07-29 09:06:14 51°10.994 2°27.087 18.153114 4.566569 34.5344 0.128905
2004-07-29 09:06:21 51°10.984 2°27.053 18.153114 4.566569 34.5344 0.128905
2004-07-29 09:06:25 51°10.979 2°27.034 18.147962 4.566991 34.534325 0.128905
2004-07-29 09:06:29 51°10.973 2°27.015 18.150247 4.567096 34.534611 0.128905
2004-07-29 09:06:36 51°10.963 2°26.982 18.156397 4.567307 34.53579 0.128905
2004-07-29 09:06:41 51°10.956 2°26.958 18.1581 4.566991 34.5325 0.128905
2004-07-29 09:06:46 51°10.95 2°26.933 18.16159 4.567307 34.535181 0.128905
2004-07-29 09:06:50 51°10.944 2°26.914 18.16159 4.567307 34.535181 0.128905
2004-07-29 09:06:54 51°10.939 2°26.895 18.157228 4.566991 34.534934 0.095195
2004-07-29 09:07:01 51°10.93 2°26.86 18.156646 4.567096 34.535219 0.061486
2004-07-29 09:07:06 51°10.924 2°26.836 18.153862 4.567307 34.534573 0.061486
2004-07-29 09:07:10 51°10.919 2°26.816 18.151743 4.567729 34.536931 0.196324
2004-07-29 09:07:16 51°10.915 2°26.785 18.151993 4.567729 34.535107 0.128905
2004-07-29 09:07:21 51°10.912 2°26.759 18.151993 4.567729 34.535107 0.128905
2004-07-29 09:07:25 51°10.911 2°26.738 18.150788 4.567729 34.535715 0.128905
2004-07-29 09:07:30 51°10.911 2°26.712 18.146051 4.567413 34.53425 0.162614
2004-07-29 09:07:35 51°10.911 2°26.685 18.143558 4.567729 34.538148 0.128905
2004-07-29 09:07:41 51°10.913 2°26.654 18.143765 4.567096 34.534002 0.128905
2004-07-29 09:07:46 51°10.917 2°26.628 18.150455 4.567307 34.53579 0.095195
2004-07-29 09:07:50 51°10.921 2°26.608 18.150455 4.567307 34.53579 0.095195
2004-07-29 09:07:56 51°10.928 2°26.578 18.147173 4.567202 34.536721 0.128905
2004-07-29 09:08:01 51°10.934 2°26.553 18.139111 4.566885 34.535865 0.128905
2004-07-29 09:08:05 51°10.939 2°26.533 18.140773 4.56678 34.53558 0.128905
2004-07-29 09:08:10 51°10.947 2°26.509 18.140108 4.566674 34.533469 0.128905
2004-07-29 09:08:16 51°10.955 2°26.479 18.131339 4.56678 34.534363 0.162614
2004-07-29 09:08:21 51°10.963 2°26.455 18.131339 4.56678 34.534363 0.162614
2004-07-29 09:08:26 51°10.97 2°26.43 18.124606 4.566463 34.534115 0.128905
2004-07-29 09:08:30 51°10.977 2°26.411 18.122902 4.566147 34.533259 0.128905
2004-07-29 09:08:36 51°10.986 2°26.382 18.120449 4.56583 34.532402 0.128905
2004-07-29 09:08:41 51°10.995 2°26.358 18.117914 4.56583 34.535445 0.061486
2004-07-29 09:08:46 51°11.006 2°26.337 18.113091 4.565409 34.53552 0.128905
2004-07-29 09:08:50 51°11.015 2°26.32 18.113091 4.565409 34.53552 0.128905
2004-07-29 09:08:56 51°11.03 2°26.297 18.111221 4.565092 34.537099 0.162614
2004-07-29 09:09:01 51°11.043 2°26.279 18.104776 4.564354 34.533883 0.162614
2004-07-29 09:09:06 51°11.057 2°26.261 18.099537 4.564459 34.536604 0.128905
2004-07-29 09:09:10 51°11.068 2°26.247 18.098623 4.563932 34.534568 0.128905
2004-07-29 09:09:16 51°11.085 2°26.228 18.09172 4.563405 34.531923 0.162614
2004-07-29 09:09:21 51°11.1 2°26.212 18.09172 4.563405 34.531923 0.162614
2004-07-29 09:09:26 51°11.115 2°26.196 18.095379 4.563194 34.534397 0.128905
2004-07-29 09:09:30 51°11.127 2°26.183 18.090306 4.562772 34.534473 0.095195
2004-07-29 09:09:33 51°11.136 2°26.174 18.093217 4.562455 34.535444 0.162614
2004-07-29 09:09:42 51°11.163 2°26.147 18.090223 4.561717 34.532227 0.095195
2004-07-29 09:09:48 51°11.182 2°26.132 18.092468 4.5614 34.530152 0.162614
2004-07-29 09:09:53 51°11.199 2°26.122 18.097957 4.56119 34.529581 0.128905
2004-07-29 09:09:58 51°11.216 2°26.113 18.092676 4.560768 34.52783 0.128905
2004-07-29 09:10:02 51°11.231 2°26.109 18.092676 4.560768 34.52783 0.128905
2004-07-29 09:10:05 51°11.241 2°26.106 18.092926 4.560557 34.527258 0.230033
2004-07-29 09:10:12 51°11.267 2°26.101 18.086397 4.560451 34.526973 0.162614
2004-07-29 09:10:18 51°11.289 2°26.1 18.089017 4.560768 34.52783 0.196324
2004-07-29 09:10:22 51°11.304 2°26.099 18.081156 4.56024 34.522747 0.128905
2004-07-29 09:10:27 51°11.323 2°26.099 18.076914 4.560557 34.525431 0.162614
2004-07-29 09:10:33 51°11.345 2°26.098 18.076914 4.560557 34.525431 0.162614
2004-07-29 09:10:38 51°11.364 2°26.099 18.071465 4.560135 34.52307 0.128905
2004-07-29 09:10:41 51°11.375 2°26.099 18.077621 4.559924 34.523717 0.162614
2004-07-29 09:10:48 51°11.402 2°26.1 18.074252 4.559502 34.522574 0.196324
2004-07-29 09:10:51 51°11.413 2°26.1 18.075583 4.559713 34.526801 0.162614
2004-07-29 09:10:57 51°11.436 2°26.1 18.072297 4.558764 34.522403 0.196324
2004-07-29 09:11:01 51°11.451 2°26.101 18.072297 4.558764 34.522403 0.196324
2004-07-29 09:11:08 51°11.477 2°26.101 18.076248 4.558658 34.524554 0.196324
2004-07-29 09:11:13 51°11.496 2°26.101 18.072505 4.558658 34.523945 0.162614
2004-07-29 09:11:18 51°11.515 2°26.102 18.075042 4.558342 34.521869 0.196324
2004-07-29 09:11:23 51°11.534 2°26.103 18.068678 4.558236 34.522802 0.162614
2004-07-29 09:11:28 51°11.553 2°26.103 18.066723 4.558342 34.524307 0.162614
2004-07-29 09:11:32 51°11.568 2°26.104 18.066723 4.558342 34.524307 0.162614
2004-07-29 09:11:38 51°11.592 2°26.103 18.066723 4.558553 34.527316 0.128905
2004-07-29 09:11:42 51°11.607 2°26.103 18.065017 4.558447 34.525812 0.162614
2004-07-29 09:11:48 51°11.63 2°26.103 18.067721 4.558236 34.52524 0.162614
2004-07-29 09:11:53 51°11.65 2°26.103 18.067014 4.558342 34.527355 0.196324
2004-07-29 09:11:55 51°11.657 2°26.103 18.07446 4.558025 34.527107 0.162614
2004-07-29 09:12:01 51°11.681 2°26.103 18.07446 4.558025 34.527107 0.162614
2004-07-29 09:12:08 51°11.708 2°26.103 18.076498 4.557814 34.525317 0.196324
2004-07-29 09:12:13 51°11.728 2°26.103 18.075749 4.557709 34.525641 0.128905
2004-07-29 09:12:17 51°11.743 2°26.103 18.073794 4.55792 34.527431 0.162614
2004-07-29 09:12:22 51°11.763 2°26.103 18.075749 4.55792 34.526212 0.162614
2004-07-29 09:12:28 51°11.786 2°26.103 18.073794 4.558025 34.524059 0.162614
2004-07-29 09:12:33 51°11.806 2°26.103 18.073794 4.558025 34.524059 0.162614
2004-07-29 09:12:38 51°11.825 2°26.103 18.072796 4.558342 34.525526 0.128905
2004-07-29 09:12:42 51°11.841 2°26.102 18.074252 4.558447 34.525812 0.162614
2004-07-29 09:12:47 51°11.861 2°26.102 18.073545 4.558553 34.526097 0.196324
2004-07-29 09:12:53 51°11.884 2°26.102 18.075292 4.558658 34.526992 0.196324
2004-07-29 09:12:58 51°11.904 2°26.103 18.080907 4.558447 34.526421 0.230033
2004-07-29 09:13:01 51°11.916 2°26.103 18.080907 4.558447 34.526421 0.230033
2004-07-29 09:13:08 51°11.943 2°26.103 18.088809 4.558236 34.52524 0.196324
2004-07-29 09:13:13 51°11.963 2°26.103 18.096918 4.558236 34.524631 0.128905
2004-07-29 09:13:18 51°11.983 2°26.102 18.106647 4.558342 34.526135 0.162614
2004-07-29 09:13:22 51°11.999 2°26.102 18.108019 4.558236 34.523412 0.128905
2004-07-29 09:13:28 51°12.022 2°26.102 18.105442 4.558869 34.525126 0.196324
2004-07-29 09:13:33 51°12.042 2°26.102 18.105442 4.558869 34.525126 0.196324
2004-07-29 09:13:38 51°12.062 2°26.102 18.106814 4.559607 34.525906 0.162614
2004-07-29 09:13:42 51°12.078 2°26.102 18.11862 4.560135 34.524898 0.128905
2004-07-29 09:13:48 51°12.102 2°26.103 18.126227 4.560662 34.52328 0.162614
2004-07-29 09:13:52 51°12.118 2°26.104 18.124024 4.560978 34.524137 0.162614
2004-07-29 09:13:58 51°12.141 2°26.105 18.121447 4.561295 34.524385 0.162614
2004-07-29 09:14:02 51°12.157 2°26.105 18.121447 4.561295 34.524385 0.162614
2004-07-29 09:14:05 51°12.169 2°26.106 18.117082 4.561611 34.525242 0.095195
2004-07-29 09:14:12 51°12.197 2°26.106 18.1165 4.562033 34.522731 0.196324
2004-07-29 09:14:18 51°12.221 2°26.106 18.113008 4.56235 34.521762 0.128905
2004-07-29 09:14:22 51°12.237 2°26.106 18.108809 4.562877 34.524407 0.128905
2004-07-29 09:14:27 51°12.256 2°26.106 18.100328 4.562139 34.519973 0.128905
2004-07-29 09:14:33 51°12.28 2°26.106 18.100328 4.562139 34.519973 0.128905
2004-07-29 09:14:37 51°12.296 2°26.106 18.088559 4.562455 34.525091 0.162614
2004-07-29 09:14:42 51°12.316 2°26.105 18.077746 4.561822 34.52216 0.162614
2004-07-29 09:14:48 51°12.339 2°26.106 18.067388 4.561506 34.521303 0.162614
2004-07-29 09:14:52 51°12.355 2°26.107 18.05886 4.561506 34.524347 0.162614
2004-07-29 09:14:56 51°12.371 2°26.109 18.056738 4.560979 34.525355 0.162614
2004-07-29 09:15:00 51°12.387 2°26.111 18.056738 4.560979 34.525355 0.162614
2004-07-29 09:15:08 51°12.419 2°26.118 18.058236 4.559713 34.522537 0.162614
2004-07-29 09:15:13 51°12.438 2°26.123 18.070092 4.558869 34.522079 0.196324
2004-07-29 09:15:18 51°12.458 2°26.129 18.077746 4.557603 34.521088 0.196324
2004-07-29 09:15:22 51°12.474 2°26.133 18.074751 4.557076 34.521488 0.196324
2004-07-29 09:15:28 51°12.498 2°26.141 18.074377 4.556443 34.518555 0.162614
2004-07-29 09:15:33 51°12.517 2°26.147 18.074377 4.556443 34.518555 0.162614
2004-07-29 09:15:38 51°12.537 2°26.153 18.075583 4.556338 34.51705 0.196324
2004-07-29 09:15:41 51°12.549 2°26.157 18.075042 4.556759 34.515755 0.230033
2004-07-29 09:15:48 51°12.577 2°26.166 18.072671 4.557181 34.516898 0.162614
2004-07-29 09:15:53 51°12.597 2°26.171 18.066723 4.557076 34.515393 0.196324
2004-07-29 09:15:58 51°12.616 2°26.177 18.059359 4.557392 34.51686 0.162614
2004-07-29 09:16:03 51°12.636 2°26.183 18.059359 4.557392 34.51686 0.162614
2004-07-29 09:16:08 51°12.656 2°26.189 18.060274 4.557287 34.517184 0.196324
2004-07-29 09:16:12 51°12.672 2°26.193 18.048208 4.557709 34.519546 0.162614
2004-07-29 09:16:18 51°12.696 2°26.2 18.05549 4.557287 34.517793 0.196324
2004-07-29 09:16:22 51°12.711 2°26.204 18.058402 4.557076 34.520269 0.230033
2004-07-29 09:16:28 51°12.735 2°26.211 18.060649 4.556654 34.520955 0.196324
2004-07-29 09:16:33 51°12.755 2°26.216 18.060649 4.556654 34.520955 0.196324
2004-07-29 09:16:38 51°12.775 2°26.222 18.065475 4.556232 34.519202 0.196324
2004-07-29 09:16:42 51°12.791 2°26.227 18.080907 4.55581 34.519279 0.196324
2004-07-29 09:16:48 51°12.814 2°26.233 18.082487 4.555916 34.520174 0.162614
2004-07-29 09:16:53 51°12.834 2°26.239 18.076415 4.556021 34.519241 0.196324
2004-07-29 09:16:58 51°12.854 2°26.245 18.073045 4.556127 34.517697 0.162614
2004-07-29 09:17:02 51°12.87 2°26.25 18.073045 4.556127 34.517697 0.162614
2004-07-29 09:17:08 51°12.894 2°26.256 18.074917 4.556443 34.516116 0.263742
2004-07-29 09:17:13 51°12.913 2°26.262 18.071215 4.557076 34.515393 0.196324
2004-07-29 09:17:18 51°12.933 2°26.268 18.063644 4.55792 34.520117 0.196324
2004-07-29 09:17:22 51°12.949 2°26.272 18.053659 4.557287 34.517184 0.162614
2004-07-29 09:17:28 51°12.973 2°26.279 18.044338 4.557603 34.51926 0.196324
2004-07-29 09:17:33 51°12.992 2°26.284 18.044338 4.557603 34.51926 0.196324
2004-07-29 09:17:38 51°13.012 2°26.29 18.043131 4.55792 34.521945 0.128905
2004-07-29 09:17:42 51°13.028 2°26.294 18.035474 4.557603 34.523526 0.128905
2004-07-29 09:17:48 51°13.052 2°26.301 18.030271 4.557076 34.523927 0.162614
2004-07-29 09:17:52 51°13.068 2°26.306 18.024235 4.556549 34.525547 0.196324
2004-07-29 09:17:58 51°13.091 2°26.313 18.025151 4.555705 34.523262 0.196324
2004-07-29 09:18:02 51°13.107 2°26.317 18.025151 4.555705 34.523262 0.196324
2004-07-29 09:18:05 51°13.119 2°26.32 18.031436 4.555494 34.52452 0.162614
2004-07-29 09:18:12 51°13.147 2°26.328 18.030604 4.554861 34.527077 0.162614
2004-07-29 09:18:18 51°13.171 2°26.334 18.033018 4.554123 34.525077 0.230033
2004-07-29 09:18:22 51°13.187 2°26.339 18.034808 4.553806 34.526661 0.196324
2004-07-29 09:18:28 51°13.211 2°26.345 18.041134 4.554017 34.527843 0.230033
2004-07-29 09:18:33 51°13.23 2°26.351 18.041134 4.554017 34.527843 0.230033
2004-07-29 09:18:38 51°13.25 2°26.357 18.048083 4.554228 34.527804 0.196324
2004-07-29 09:18:41 51°13.262 2°26.36 18.052993 4.554334 34.527479 0.230033
2004-07-29 09:18:48 51°13.29 2°26.369 18.056946 4.554545 34.528661 0.196324
2004-07-29 09:18:52 51°13.306 2°26.374 18.06069 4.554756 34.527401 0.162614
2004-07-29 09:18:57 51°13.325 2°26.382 18.06485 4.554861 34.524636 0.162614
2004-07-29 09:19:02 51°13.344 2°26.392 18.06485 4.554861 34.524636 0.162614
2004-07-29 09:19:08 51°13.367 2°26.406 18.060441 4.555388 34.524845 0.162614
2004-07-29 09:19:12 51°13.382 2°26.417 18.053284 4.555916 34.526273 0.196324
2004-07-29 09:19:18 51°13.404 2°26.433 18.045961 4.556232 34.5253 0.196324
2004-07-29 09:19:22 51°13.419 2°26.445 18.056446 4.556971 34.52791 0.128905
2004-07-29 09:19:25 51°13.429 2°26.454 18.051911 4.557182 34.526651 0.162614
2004-07-29 09:19:33 51°13.458 2°26.478 18.051911 4.557182 34.526651 0.162614
2004-07-29 09:19:38 51°13.476 2°26.494 18.052286 4.557182 34.527261 0.162614
2004-07-29 09:19:42 51°13.491 2°26.506 18.049747 4.557182 34.53214 0.196324
2004-07-29 09:19:45 51°13.502 2°26.516 18.041966 4.556654 34.530102 0.162614
2004-07-29 09:19:52 51°13.527 2°26.538 18.034974 4.556654 34.528882 0.162614
2004-07-29 09:19:58 51°13.548 2°26.56 18.041799 4.556654 34.530102 0.128905
2004-07-29 09:20:02 51°13.561 2°26.574 18.041799 4.556654 34.530102 0.128905
2004-07-29 09:20:08 51°13.581 2°26.597 18.044047 4.556865 34.532504 0.196324
2004-07-29 09:20:12 51°13.595 2°26.612 18.043464 4.556654 34.531932 0.162614
2004-07-29 09:20:18 51°13.615 2°26.636 18.034766 4.556232 34.533841 0.196324
2004-07-29 09:20:21 51°13.625 2°26.648 18.036181 4.556021 34.53449 0.128905
2004-07-29 09:20:27 51°13.644 2°26.671 18.030937 4.556021 34.53266 0.128905
2004-07-29 09:20:33 51°13.664 2°26.695 18.030937 4.556021 34.53266 0.128905
2004-07-29 09:20:37 51°13.677 2°26.711 18.029064 4.556232 34.533231 0.162614
2004-07-29 09:20:42 51°13.693 2°26.731 18.021571 4.556338 34.535347 0.162614
2004-07-29 09:20:48 51°13.713 2°26.755 18.023694 4.555705 34.533634 0.196324
2004-07-29 09:20:53 51°13.729 2°26.777 18.029439 4.555705 34.535465 0.128905
2004-07-29 09:20:58 51°13.744 2°26.798 18.033684 4.555178 34.534037 0.128905
2004-07-29 09:21:02 51°13.757 2°26.815 18.033684 4.555178 34.534037 0.128905
2004-07-29 09:21:08 51°13.775 2°26.841 18.044504 4.554967 34.535297 0.162614
2004-07-29 09:21:13 51°13.79 2°26.864 18.045461 4.554334 34.532362 0.162614
2004-07-29 09:21:17 51°13.803 2°26.881 18.048416 4.554756 34.535336 0.128905
2004-07-29 09:21:22 51°13.818 2°26.903 18.041217 4.555072 34.534972 0.128905
2004-07-29 09:21:25 51°13.827 2°26.916 18.042632 4.555283 34.533712 0.162614
2004-07-29 09:21:33 51°13.852 2°26.952 18.042632 4.555283 34.533712 0.162614
2004-07-29 09:21:38 51°13.867 2°26.973 18.048541 4.555705 34.532413 0.162614
2004-07-29 09:21:41 51°13.877 2°26.986 18.049747 4.55581 34.531478 0.128905
2004-07-29 09:21:48 51°13.898 2°27.017 18.048291 4.556232 34.534451 0.162614
2004-07-29 09:21:52 51°13.911 2°27.035 18.051703 4.556127 34.535386 0.128905
2004-07-29 09:21:58 51°13.929 2°27.061 18.062313 4.556654 34.537424 0.196324
2004-07-29 09:22:02 51°13.941 2°27.078 18.062313 4.556654 34.537424 0.196324
2004-07-29 09:22:08 51°13.96 2°27.105 18.066431 4.556549 34.535308 0.196324
2004-07-29 09:22:13 51°13.975 2°27.127 18.074626 4.55676 34.535879 0.162614
2004-07-29 09:22:17 51°13.987 2°27.144 18.077912 4.556865 34.536164 0.196324
2004-07-29 09:22:21 51°14 2°27.162 18.078869 4.556971 34.534619 0.162614
2004-07-29 09:22:28 51°14.021 2°27.192 18.080616 4.557604 34.533893 0.128905
2004-07-29 09:22:30 51°14.028 2°27.201 18.080616 4.557604 34.533893 0.128905
2004-07-29 09:22:38 51°14.052 2°27.235 18.082654 4.558342 34.535281 0.162614
2004-07-29 09:22:41 51°14.061 2°27.248 18.086979 4.558869 34.53366 0.162614
2004-07-29 09:22:48 51°14.083 2°27.279 18.090888 4.559291 34.534802 0.128905
2004-07-29 09:22:53 51°14.098 2°27.3 18.093508 4.559502 34.534763 0.196324
2004-07-29 09:22:57 51°14.111 2°27.318 18.095171 4.559713 34.535334 0.162614
2004-07-29 09:23:02 51°14.126 2°27.34 18.095171 4.559713 34.535334 0.162614
2004-07-29 09:23:08 51°14.144 2°27.367 18.092676 4.560029 34.535581 0.128905
2004-07-29 09:23:12 51°14.156 2°27.385 18.08752 4.560346 34.534609 0.196324
2004-07-29 09:23:18 51°14.174 2°27.411 18.087312 4.560768 34.53636 0.128905
2004-07-29 09:23:22 51°14.186 2°27.429 18.099371 4.560979 34.535103 0.162614
2004-07-29 09:23:28 51°14.205 2°27.456 18.102365 4.561506 34.538359 0.128905
2004-07-29 09:23:32 51°14.217 2°27.474 18.102365 4.561506 34.538359 0.128905
2004-07-29 09:23:37 51°14.232 2°27.495 18.104111 4.561295 34.538397 0.162614
2004-07-29 09:23:41 51°14.244 2°27.513 18.10461 4.560662 34.535465 0.128905
2004-07-29 09:23:48 51°14.266 2°27.544 18.106564 4.560873 34.535427 0.196324
2004-07-29 09:23:53 51°14.281 2°27.566 18.103571 4.561401 34.535636 0.162614
2004-07-29 09:23:58 51°14.297 2°27.588 18.099205 4.561928 34.537063 0.196324
2004-07-29 09:24:02 51°14.309 2°27.606 18.099205 4.561928 34.537063 0.196324
2004-07-29 09:24:08 51°14.327 2°27.633 18.090597 4.562244 34.537919 0.128905
2004-07-29 09:24:10 51°14.333 2°27.642 18.086314 4.562561 34.538775 0.095195
2004-07-29 09:24:18 51°14.358 2°27.678 18.086688 4.562666 34.538452 0.196324
2004-07-29 09:24:21 51°14.367 2°27.691 18.084983 4.562666 34.54028 0.162614
2004-07-29 09:24:28 51°14.388 2°27.722 18.079118 4.562139 34.538852 0.162614
2004-07-29 09:24:33 51°14.404 2°27.743 18.079118 4.562139 34.538852 0.162614
2004-07-29 09:24:38 51°14.419 2°27.765 18.082321 4.562034 34.542833 0.196324
2004-07-29 09:24:41 51°14.429 2°27.778 18.095088 4.561506 34.540187 0.196324
2004-07-29 09:24:48 51°14.45 2°27.809 18.096752 4.561401 34.540511 0.162614
2004-07-29 09:24:53 51°14.466 2°27.831 18.098789 4.560979 34.541808 0.196324
2004-07-29 09:24:58 51°14.481 2°27.854 18.097957 4.560768 34.541237 0.196324
2004-07-29 09:25:01 51°14.49 2°27.867 18.097957 4.560768 34.541237 0.196324
2004-07-29 09:25:08 51°14.511 2°27.899 18.086106 4.561084 34.540874 0.162614
2004-07-29 09:25:13 51°14.526 2°27.921 18.083319 4.561295 34.538397 0.162614
2004-07-29 09:25:18 51°14.541 2°27.944 18.082113 4.561823 34.539215 0.162614
2004-07-29 09:25:21 51°14.55 2°27.957 18.075125 4.561823 34.539215 0.162614
2004-07-29 09:25:28 51°14.572 2°27.988 18.069926 4.561823 34.541653 0.128905
2004-07-29 09:25:32 51°14.584 2°28.006 18.069926 4.561823 34.541653 0.128905
2004-07-29 09:25:37 51°14.599 2°28.028 18.065974 4.561295 34.539616 0.162614
2004-07-29 09:25:41 51°14.612 2°28.045 18.066265 4.560979 34.540589 0.196324
2004-07-29 09:25:48 51°14.633 2°28.076 18.063353 4.560873 34.541523 0.162614
2004-07-29 09:25:53 51°14.649 2°28.098 18.068761 4.56024 34.54103 0.128905
2004-07-29 09:25:57 51°14.661 2°28.116 18.068095 4.559608 34.539317 0.128905
2004-07-29 09:26:01 51°14.673 2°28.133 18.068095 4.559608 34.539317 0.128905
2004-07-29 09:26:08 51°14.695 2°28.164 18.066057 4.559608 34.540537 0.095195
2004-07-29 09:26:13 51°14.71 2°28.186 18.068095 4.559186 34.539395 0.095195
2004-07-29 09:26:17 51°14.722 2°28.203 18.060857 4.558869 34.536709 0.162614
2004-07-29 09:26:22 51°14.738 2°28.226 18.057403 4.559186 34.539395 0.162614
2004-07-29 09:26:28 51°14.756 2°28.252 18.053867 4.558869 34.536709 0.162614
2004-07-29 09:26:32 51°14.769 2°28.269 18.053867 4.558869 34.536709 0.162614
2004-07-29 09:26:38 51°14.787 2°28.296 18.056322 4.558975 34.537604 0.162614
2004-07-29 09:26:42 51°14.799 2°28.313 18.061772 4.55908 34.53911 0.128905
2004-07-29 09:26:48 51°14.818 2°28.34 18.063436 4.558658 34.538578 0.162614
2004-07-29 09:26:53 51°14.833 2°28.361 18.070466 4.558236 34.538046 0.128905
2004-07-29 09:26:57 51°14.845 2°28.379 18.070258 4.558026 34.538085 0.128905
2004-07-29 09:27:02 51°14.861 2°28.401 18.070258 4.558026 34.538085 0.128905
2004-07-29 09:27:08 51°14.879 2°28.428 18.06485 4.558025 34.536865 0.095195
2004-07-29 09:27:13 51°14.894 2°28.45 18.058444 4.558131 34.53654 0.128905
2004-07-29 09:27:18 51°14.909 2°28.472 18.053908 4.558236 34.534386 0.196324
2004-07-29 09:27:22 51°14.921 2°28.49 18.067014 4.558764 34.535814 0.128905
2004-07-29 09:27:28 51°14.94 2°28.516 18.085107 4.558553 34.533413 0.128905
2004-07-29 09:27:33 51°14.955 2°28.538 18.085107 4.558553 34.533413 0.128905
2004-07-29 09:27:38 51°14.97 2°28.56 18.103862 4.558553 34.536462 0.128905
2004-07-29 09:27:42 51°14.983 2°28.577 18.130716 4.558236 34.536826 0.095195
2004-07-29 09:27:48 51°15.001 2°28.603 18.145427 4.55792 34.535969 0.162614
2004-07-29 09:27:53 51°15.017 2°28.625 18.151078 4.558869 34.537929 0.095195
2004-07-29 09:27:58 51°15.032 2°28.647 18.151494 4.559713 34.532896 0.162614
2004-07-29 09:28:02 51°15.044 2°28.665 18.151494 4.559713 34.532896 0.162614
2004-07-29 09:28:08 51°15.062 2°28.691 18.145801 4.561401 34.53198 0.162614
2004-07-29 09:28:13 51°15.078 2°28.713 18.142893 4.563299 34.534073 0.162614
2004-07-29 09:28:17 51°15.09 2°28.73 18.132753 4.564565 34.529585 0.128905
2004-07-29 09:28:21 51°15.102 2°28.748 18.118371 4.565092 34.528578 0.162614
2004-07-29 09:28:28 51°15.122 2°28.779 18.106107 4.56583 34.533011 0.128905
2004-07-29 09:28:33 51°15.137 2°28.802 18.106107 4.56583 34.533011 0.128905
2004-07-29 09:28:38 51°15.152 2°28.824 18.100785 4.565725 34.532725 0.128905
2004-07-29 09:28:41 51°15.161 2°28.837 18.093134 4.565514 34.53398 0.128905
2004-07-29 09:28:48 51°15.183 2°28.868 18.094049 4.564987 34.534987 0.095195
2004-07-29 09:28:53 51°15.198 2°28.89 18.095754 4.564143 34.536357 0.128905
2004-07-29 09:28:58 51°15.213 2°28.911 18.097791 4.563405 34.538013 0.095195
2004-07-29 09:29:01 51°15.222 2°28.924 18.097791 4.563405 34.538013 0.095195
2004-07-29 09:29:08 51°15.244 2°28.954 18.095546 4.562244 34.533655 0.061486
2004-07-29 09:29:13 51°15.259 2°28.976 18.100868 4.561506 34.533484 0.128905
2004-07-29 09:29:18 51°15.275 2°28.997 18.102448 4.561295 34.533522 0.095195
2004-07-29 09:29:21 51°15.284 2°29.01 18.107313 4.56119 34.531409 0.162614
2004-07-29 09:29:28 51°15.305 2°29.041 18.110639 4.560979 34.530228 0.128905
2004-07-29 09:29:32 51°15.317 2°29.059 18.110639 4.560979 34.530228 0.128905
2004-07-29 09:29:38 51°15.335 2°29.085 18.116334 4.560979 34.529619 0.128905
2004-07-29 09:29:42 51°15.347 2°29.103 18.116708 4.561084 34.528686 0.061486
2004-07-29 09:29:48 51°15.364 2°29.13 18.115129 4.561295 34.52743 0.128905
2004-07-29 09:29:53 51°15.379 2°29.152 18.114921 4.5614 34.526498 0.095195
2004-07-29 09:29:57 51°15.391 2°29.17 18.114838 4.561506 34.524347 0.061486
2004-07-29 09:30:01 51°15.403 2°29.188 18.114838 4.561506 34.524347 0.061486
2004-07-29 09:30:08 51°15.424 2°29.218 18.117664 4.562033 34.526384 0.061486
2004-07-29 09:30:13 51°15.439 2°29.24 18.117831 4.561928 34.524881 0.128905
2004-07-29 09:30:17 51°15.452 2°29.257 18.123276 4.561822 34.523377 0.162614
2004-07-29 09:30:21 51°15.464 2°29.274 18.136659 4.561928 34.523663 0.095195
2004-07-29 09:30:28 51°15.485 2°29.304 18.15299 4.562033 34.525166 0.095195
2004-07-29 09:30:33 51°15.5 2°29.327 18.15299 4.562033 34.525166 0.095195
2004-07-29 09:30:37 51°15.512 2°29.344 18.164124 4.562139 34.524234 0.061486
2004-07-29 09:30:41 51°15.524 2°29.362 18.166907 4.562139 34.523017 0.128905
2004-07-29 09:30:48 51°15.545 2°29.393 18.167946 4.562244 34.51965 0.095195
2004-07-29 09:30:53 51°15.56 2°29.415 18.167156 4.562982 34.517999 0.095195
2004-07-29 09:30:57 51°15.572 2°29.433 18.166242 4.564143 34.516275 0.196324
2004-07-29 09:31:01 51°15.584 2°29.45 18.166242 4.564143 34.516275 0.196324
2004-07-29 09:31:08 51°15.605 2°29.481 18.17293 4.564459 34.51166 0.128905
2004-07-29 09:31:13 51°15.62 2°29.502 18.181486 4.565197 34.51366 0.095195
2004-07-29 09:31:18 51°15.635 2°29.524 18.187799 4.565514 34.513302 0.128905
2004-07-29 09:31:21 51°15.645 2°29.537 18.195107 4.565514 34.512694 0.095195
2004-07-29 09:31:28 51°15.666 2°29.568 18.205737 4.565725 34.513265 0.095195
2004-07-29 09:31:33 51°15.681 2°29.589 18.205737 4.565725 34.513265 0.095195
2004-07-29 09:31:38 51°15.696 2°29.611 18.210179 4.566146 34.513193 0.128905
2004-07-29 09:31:41 51°15.705 2°29.624 18.212504 4.566568 34.51069 0.095195
2004-07-29 09:31:48 51°15.727 2°29.654 18.214911 4.567096 34.509689 0.095195
2004-07-29 09:31:52 51°15.739 2°29.672 18.214372 4.567518 34.507188 0.128905
2004-07-29 09:31:57 51°15.754 2°29.693 18.212794 4.568467 34.50976 0.095195
2004-07-29 09:32:01 51°15.767 2°29.71 18.212794 4.568467 34.50976 0.095195
2004-07-29 09:32:07 51°15.786 2°29.736 18.211673 4.568572 34.505796 0.128905
2004-07-29 09:32:12 51°15.801 2°29.757 18.214538 4.568889 34.50544 0.162614
2004-07-29 09:32:17 51°15.817 2°29.778 18.224002 4.569416 34.508082 0.128905
2004-07-29 09:32:21 51°15.829 2°29.795 18.23168 4.569311 34.505976 0.128905
2004-07-29 09:32:28 51°15.851 2°29.825 18.232053 4.569522 34.507761 0.095195
2004-07-29 09:32:33 51°15.866 2°29.847 18.232053 4.569522 34.507761 0.095195
2004-07-29 09:32:38 51°15.881 2°29.868 18.232261 4.5691 34.502977 0.128905
2004-07-29 09:32:41 51°15.89 2°29.882 18.231182 4.569416 34.503228 0.128905
2004-07-29 09:32:48 51°15.912 2°29.912 18.228111 4.570049 34.503729 0.128905
2004-07-29 09:32:53 51°15.927 2°29.934 18.229854 4.570576 34.504551 0.162614
2004-07-29 09:32:58 51°15.942 2°29.956 18.230144 4.57026 34.499449 0.162614
2004-07-29 09:33:01 51°15.951 2°29.969 18.230144 4.57026 34.499449 0.162614
2004-07-29 09:33:08 51°15.972 2°29.999 18.233506 4.570682 34.502411 0.162614
2004-07-29 09:33:13 51°15.987 2°30.021 18.243714 4.570365 34.500947 0.162614
2004-07-29 09:33:18 51°16.002 2°30.043 18.252884 4.570576 34.502732 0.128905
2004-07-29 09:33:21 51°16.011 2°30.056 18.262716 4.570471 34.501233 0.095195
2004-07-29 09:33:28 51°16.032 2°30.087 18.272298 4.570682 34.501805 0.128905
2004-07-29 09:33:33 51°16.047 2°30.109 18.272298 4.570682 34.501805 0.128905
2004-07-29 09:33:37 51°16.059 2°30.127 18.279598 4.570576 34.497881 0.128905
2004-07-29 09:33:42 51°16.074 2°30.149 18.290795 4.571209 34.497171 0.128905
2004-07-29 09:33:48 51°16.092 2°30.175 18.30199 4.572158 34.498531 0.196324
2004-07-29 09:33:53 51°16.107 2°30.198 18.311981 4.573002 34.498393 0.162614
2004-07-29 09:33:58 51°16.122 2°30.219 18.319649 4.573424 34.49469 0.162614
2004-07-29 09:34:02 51°16.135 2°30.237 18.319649 4.573424 34.49469 0.162614
2004-07-29 09:34:08 51°16.153 2°30.263 18.328229 4.574268 34.494555 0.162614
2004-07-29 09:34:13 51°16.168 2°30.284 18.337387 4.575111 34.494419 0.162614
2004-07-29 09:34:18 51°16.184 2°30.306 18.339832 4.576694 34.497495 0.196324
2004-07-29 09:34:22 51°16.196 2°30.323 18.33805 4.577221 34.495899 0.162614
2004-07-29 09:34:28 51°16.214 2°30.349 18.339376 4.577959 34.494269 0.196324
2004-07-29 09:34:33 51°16.229 2°30.371 18.339376 4.577959 34.494269 0.196324
2004-07-29 09:34:37 51°16.241 2°30.388 18.342401 4.578697 34.493246 0.162614
2004-07-29 09:34:42 51°16.256 2°30.41 18.339252 4.579647 34.495818 0.162614
2004-07-29 09:34:48 51°16.275 2°30.435 18.328892 4.579858 34.492762 0.162614
2004-07-29 09:34:52 51°16.287 2°30.453 18.326654 4.58028 34.496323 0.196324
2004-07-29 09:34:58 51°16.306 2°30.478 18.32856 4.580491 34.49629 0.196324
2004-07-29 09:35:02 51°16.318 2°30.496 18.32856 4.580491 34.49629 0.196324
2004-07-29 09:35:08 51°16.336 2°30.522 18.331295 4.58028 34.493905 0.128905
2004-07-29 09:35:13 51°16.351 2°30.544 18.333699 4.580174 34.495433 0.196324
2004-07-29 09:35:17 51°16.363 2°30.561 18.343851 4.579647 34.496422 0.162614
2004-07-29 09:35:22 51°16.379 2°30.583 18.342401 4.579436 34.494642 0.230033
2004-07-29 09:35:28 51°16.397 2°30.609 18.337429 4.579858 34.497598 0.162614
2004-07-29 09:35:33 51°16.412 2°30.63 18.337429 4.579858 34.497598 0.162614
2004-07-29 09:35:38 51°16.428 2°30.652 18.335025 4.579541 34.494323 0.196324
2004-07-29 09:35:42 51°16.44 2°30.67 18.333989 4.579647 34.491586 0.162614
2004-07-29 09:35:48 51°16.457 2°30.697 18.334694 4.580174 34.49241 0.162614
2004-07-29 09:35:53 51°16.473 2°30.719 18.337843 4.580385 34.493586 0.162614
2004-07-29 09:35:58 51°16.488 2°30.74 18.338547 4.580069 34.492729 0.162614
2004-07-29 09:36:00 51°16.494 2°30.749 18.338547 4.580069 34.492729 0.162614
2004-07-29 09:36:08 51°16.519 2°30.783 18.338547 4.579963 34.493652 0.196324
2004-07-29 09:36:13 51°16.535 2°30.803 18.344183 4.579752 34.491872 0.162614
2004-07-29 09:36:18 51°16.55 2°30.824 18.351433 4.579858 34.492157 0.162614
2004-07-29 09:36:21 51°16.56 2°30.837 18.365228 4.579752 34.490058 0.162614
2004-07-29 09:36:28 51°16.581 2°30.867 18.383162 4.580069 34.493333 0.162614
2004-07-29 09:36:33 51°16.597 2°30.888 18.383162 4.580069 34.493333 0.162614
2004-07-29 09:36:38 51°16.612 2°30.91 18.411812 4.579225 34.483795 0.162614
2004-07-29 09:36:42 51°16.624 2°30.927 18.430934 4.580174 34.489389 0.196324
2004-07-29 09:36:48 51°16.642 2°30.954 18.445292 4.580701 34.486588 0.128905
2004-07-29 09:36:53 51°16.657 2°30.975 18.449098 4.581862 34.48792 0.196324
2004-07-29 09:36:57 51°16.67 2°30.992 18.443761 4.582705 34.479341 0.162614
2004-07-29 09:37:01 51°16.682 2°31.009 18.443761 4.582705 34.479341 0.162614
2004-07-29 09:37:08 51°16.704 2°31.039 18.434658 4.584815 34.481438 0.196324
2004-07-29 09:37:13 51°16.719 2°31.061 18.432796 4.585869 34.473445 0.162614
2004-07-29 09:37:18 51°16.735 2°31.082 18.438589 4.587663 34.477702 0.162614
2004-07-29 09:37:21 51°16.744 2°31.095 18.447816 4.588295 34.478212 0.230033
2004-07-29 09:37:28 51°16.765 2°31.125 18.448519 4.588401 34.479703 0.196324
2004-07-29 09:37:33 51°16.78 2°31.146 18.448519 4.588401 34.479703 0.196324
2004-07-29 09:37:38 51°16.795 2°31.168 18.450753 4.58819 34.480939 0.196324
2004-07-29 09:37:41 51°16.804 2°31.181 18.457538 4.587873 34.478274 0.162614
2004-07-29 09:37:48 51°16.826 2°31.211 18.459482 4.587873 34.475864 0.162614
2004-07-29 09:37:53 51°16.841 2°31.233 18.457455 4.58819 34.47371 0.162614
2004-07-29 09:37:57 51°16.853 2°31.251 18.452367 4.588717 34.476344 0.196324
2004-07-29 09:38:01 51°16.865 2°31.268 18.452367 4.588717 34.476344 0.196324
2004-07-29 09:38:08 51°16.887 2°31.299 18.450381 4.588823 34.474221 0.196324
2004-07-29 09:38:12 51°16.899 2°31.316 18.463991 4.589139 34.473272 0.196324
2004-07-29 09:38:17 51°16.914 2°31.337 18.476399 4.589456 34.473528 0.162614
2004-07-29 09:38:21 51°16.927 2°31.354 18.48347 4.58935 34.473242 0.162614
2004-07-29 09:38:28 51°16.949 2°31.384 18.491202 4.589139 34.473874 0.196324
2004-07-29 09:38:33 51°16.964 2°31.405 18.491202 4.589139 34.473874 0.196324
2004-07-29 09:38:37 51°16.977 2°31.422 18.494303 4.588823 34.470608 0.196324
2004-07-29 09:38:42 51°16.992 2°31.443 18.499554 4.589666 34.47109 0.230033
2004-07-29 09:38:48 51°17.011 2°31.469 18.505342 4.590299 34.467991 0.162614
2004-07-29 09:38:52 51°17.023 2°31.487 18.50807 4.590932 34.467902 0.162614
2004-07-29 09:38:58 51°17.041 2°31.513 18.516874 4.591776 34.469587 0.230033
2004-07-29 09:39:02 51°17.053 2°31.53 18.516874 4.591776 34.469587 0.230033
2004-07-29 09:39:08 51°17.071 2°31.557 18.521999 4.592303 34.468611 0.162614
2004-07-29 09:39:13 51°17.086 2°31.579 18.526586 4.592409 34.465891 0.196324
2004-07-29 09:39:17 51°17.098 2°31.596 18.527248 4.592936 34.465517 0.162614
2004-07-29 09:39:22 51°17.114 2°31.618 18.524685 4.593147 34.463083 0.230033
2004-07-29 09:39:28 51°17.132 2°31.644 18.522454 4.593674 34.46271 0.162614
2004-07-29 09:39:33 51°17.148 2°31.665 18.522454 4.593674 34.46271 0.162614
2004-07-29 09:39:38 51°17.163 2°31.686 18.532496 4.594202 34.462938 0.230033
2004-07-29 09:39:42 51°17.175 2°31.703 18.543569 4.594729 34.463166 0.196324
2004-07-29 09:39:48 51°17.193 2°31.729 18.555095 4.595046 34.464024 0.162614
2004-07-29 09:39:53 51°17.208 2°31.752 18.563522 4.594729 34.462566 0.196324
2004-07-29 09:39:58 51°17.223 2°31.775 18.568107 4.594624 34.461078 0.196324
2004-07-29 09:40:00 51°17.228 2°31.784 18.568107 4.594624 34.461078 0.196324
2004-07-29 09:40:08 51°17.251 2°31.821 18.564059 4.595151 34.458905 0.196324
2004-07-29 09:40:13 51°17.265 2°31.845 18.55997 4.595889 34.458505 0.196324
2004-07-29 09:40:17 51°17.276 2°31.864 18.55712 4.596522 34.456019 0.196324
2004-07-29 09:40:22 51°17.29 2°31.888 18.555674 4.597366 34.455907 0.196324
2004-07-29 09:40:28 51°17.306 2°31.917 18.551336 4.597471 34.453793 0.196324
2004-07-29 09:40:33 51°17.32 2°31.94 18.551336 4.597471 34.453793 0.196324
2004-07-29 09:40:38 51°17.335 2°31.963 18.549601 4.597366 34.453507 0.196324
2004-07-29 09:40:41 51°17.344 2°31.976 18.554558 4.597366 34.454707 0.162614
2004-07-29 09:40:48 51°17.365 2°32.007 18.56125 4.597366 34.455307 0.196324
2004-07-29 09:40:53 51°17.38 2°32.029 18.570213 4.597049 34.455649 0.196324
2004-07-29 09:40:58 51°17.396 2°32.05 18.585244 4.596628 34.453905 0.230033
2004-07-29 09:41:01 51°17.405 2°32.063 18.585244 4.596628 34.453905 0.230033
2004-07-29 09:41:08 51°17.427 2°32.093 18.59792 4.595889 34.448903 0.230033
2004-07-29 09:41:13 51°17.443 2°32.114 18.612285 4.596416 34.450333 0.196324
2004-07-29 09:41:18 51°17.458 2°32.135 18.624543 4.596838 34.450277 0.196324
2004-07-29 09:41:22 51°17.471 2°32.153 18.633002 4.597577 34.448681 0.230033
2004-07-29 09:41:28 51°17.489 2°32.179 18.634033 4.598209 34.445601 0.196324
2004-07-29 09:41:33 51°17.504 2°32.2 18.634033 4.598209 34.445601 0.196324
2004-07-29 09:41:37 51°17.517 2°32.218 18.634033 4.59937 34.444553 0.196324
2004-07-29 09:41:41 51°17.529 2°32.235 18.628174 4.600319 34.443533 0.196324
2004-07-29 09:41:48 51°17.551 2°32.265 18.625162 4.601479 34.443087 0.196324
2004-07-29 09:41:53 51°17.566 2°32.286 18.625368 4.602639 34.444438 0.196324
2004-07-29 09:41:58 51°17.582 2°32.307 18.62545 4.60285 34.442616 0.230033
2004-07-29 09:42:01 51°17.591 2°32.32 18.62545 4.60285 34.442616 0.230033
2004-07-29 09:42:08 51°17.613 2°32.35 18.624996 4.60285 34.442017 0.230033
2004-07-29 09:42:13 51°17.628 2°32.372 18.626647 4.602112 34.438817 0.230033
2004-07-29 09:42:18 51°17.644 2°32.393 18.632094 4.602112 34.439416 0.196324
2004-07-29 09:42:21 51°17.653 2°32.406 18.633868 4.601796 34.437959 0.230033
2004-07-29 09:42:28 51°17.674 2°32.436 18.633291 4.601585 34.43619 0.230033
2004-07-29 09:42:33 51°17.69 2°32.457 18.633291 4.601585 34.43619 0.230033
2004-07-29 09:42:38 51°17.705 2°32.479 18.630485 4.601268 34.432937 0.196324
2004-07-29 09:42:41 51°17.714 2°32.492 18.63065 4.601374 34.431428 0.196324
2004-07-29 09:42:48 51°17.735 2°32.522 18.631186 4.601268 34.428749 0.230033
2004-07-29 09:42:53 51°17.75 2°32.544 18.629453 4.601584 34.429608 0.263742
2004-07-29 09:42:58 51°17.766 2°32.566 18.630196 4.601584 34.429009 0.263742
2004-07-29 09:43:02 51°17.778 2°32.583 18.630196 4.601584 34.429009 0.263742
2004-07-29 09:43:08 51°17.796 2°32.61 18.627349 4.601268 34.427552 0.263742
2004-07-29 09:43:13 51°17.811 2°32.631 18.626441 4.600741 34.424326 0.263742
2004-07-29 09:43:17 51°17.823 2°32.648 18.627019 4.600741 34.423728 0.230033
2004-07-29 09:43:21 51°17.836 2°32.665 18.630113 4.600424 34.421075 0.230033
2004-07-29 09:43:28 51°17.857 2°32.695 18.632094 4.600213 34.420502 0.230033
2004-07-29 09:43:33 51°17.873 2°32.717 18.632094 4.600213 34.420502 0.230033
2004-07-29 09:43:38 51°17.888 2°32.738 18.643771 4.599791 34.417562 0.230033
2004-07-29 09:43:41 51°17.898 2°32.751 18.649835 4.599264 34.413737 0.263742
2004-07-29 09:43:48 51°17.919 2°32.78 18.653878 4.599475 34.416104 0.230033
2004-07-29 09:43:53 51°17.935 2°32.801 18.652021 4.599264 34.411943 0.263742
2004-07-29 09:43:58 51°17.95 2°32.822 18.652393 4.599686 34.412491 0.263742
2004-07-29 09:44:01 51°17.96 2°32.835 18.652393 4.599686 34.412491 0.263742
2004-07-29 09:44:08 51°17.981 2°32.865 18.654497 4.600002 34.408568 0.263742
2004-07-29 09:44:13 51°17.997 2°32.886 18.656023 4.600424 34.407922 0.230033
2004-07-29 09:44:18 51°18.012 2°32.908 18.660849 4.60074 34.408781 0.263742
2004-07-29 09:44:21 51°18.021 2°32.921 18.663076 4.600424 34.404336 0.297452
2004-07-29 09:44:28 51°18.042 2°32.951 18.661302 4.600635 34.404909 0.263742
2004-07-29 09:44:33 51°18.057 2°32.973 18.661302 4.600635 34.404909 0.263742
2004-07-29 09:44:38 51°18.072 2°32.994 18.664148 4.600635 34.403715 0.297452
2004-07-29 09:44:42 51°18.085 2°33.012 18.664313 4.600951 34.405172 0.297452
2004-07-29 09:44:48 51°18.103 2°33.038 18.66353 4.601057 34.403666 0.263742
2004-07-29 09:44:53 51°18.118 2°33.059 18.665221 4.600846 34.400106 0.297452
2004-07-29 09:44:57 51°18.13 2°33.077 18.667448 4.601057 34.401277 0.297452
2004-07-29 09:45:01 51°18.143 2°33.094 18.667448 4.601057 34.401277 0.297452
2004-07-29 09:45:08 51°18.164 2°33.123 18.661591 4.601268 34.401253 0.297452
2004-07-29 09:45:13 51°18.18 2°33.144 18.657838 4.601373 34.401539 0.297452
2004-07-29 09:45:18 51°18.195 2°33.165 18.653548 4.600846 34.396523 0.297452
2004-07-29 09:45:21 51°18.205 2°33.178 18.648639 4.601056 34.397694 0.263742
2004-07-29 09:45:28 51°18.226 2°33.208 18.646824 4.60074 34.395043 0.297452
2004-07-29 09:45:33 51°18.242 2°33.229 18.646824 4.60074 34.395043 0.297452
2004-07-29 09:45:38 51°18.257 2°33.251 18.640429 4.600107 34.392128 0.297452
2004-07-29 09:45:41 51°18.266 2°33.264 18.638985 4.600107 34.395114 0.297452
2004-07-29 09:45:48 51°18.287 2°33.294 18.631558 4.59958 34.39368 0.297452
2004-07-29 09:45:53 51°18.302 2°33.316 18.624831 4.599158 34.391936 0.297452
2004-07-29 09:45:58 51°18.317 2°33.337 18.610304 4.598525 34.390216 0.331161
2004-07-29 09:46:01 51°18.326 2°33.35 18.610304 4.598525 34.390216 0.331161
2004-07-29 09:46:08 51°18.347 2°33.38 18.607084 4.597576 34.385843 0.297452
2004-07-29 09:46:13 51°18.362 2°33.402 18.601057 4.59747 34.387348 0.297452
2004-07-29 09:46:18 51°18.377 2°33.423 18.595236 4.596732 34.387132 0.364871
2004-07-29 09:46:22 51°18.389 2°33.439 18.587268 4.59631 34.38957 0.331161
2004-07-29 09:46:28 51°18.408 2°33.464 18.580207 4.595255 34.3873 0.331161
2004-07-29 09:46:33 51°18.423 2°33.485 18.580207 4.595255 34.3873 0.331161
2004-07-29 09:46:37 51°18.435 2°33.502 18.574095 4.594411 34.385005 0.364871
2004-07-29 09:46:41 51°18.447 2°33.519 18.571121 4.593778 34.384479 0.364871
2004-07-29 09:46:48 51°18.469 2°33.549 18.566496 4.593251 34.386034 0.364871
2004-07-29 09:46:53 51°18.484 2°33.57 18.564183 4.592724 34.385796 0.39858
2004-07-29 09:46:58 51°18.5 2°33.591 18.567115 4.592091 34.387663 0.432289
2004-07-29 09:47:01 51°18.509 2°33.604 18.567115 4.592091 34.387663 0.432289
2004-07-29 09:47:08 51°18.53 2°33.633 18.570337 4.591142 34.384483 0.465999
2004-07-29 09:47:13 51°18.546 2°33.655 18.575004 4.590614 34.38245 0.533418
2004-07-29 09:47:18 51°18.561 2°33.677 18.586442 4.589559 34.377785 0.567127
2004-07-29 09:47:21 51°18.57 2°33.69 18.602337 4.589137 34.376038 0.567127
2004-07-29 09:47:28 51°18.592 2°33.719 18.616784 4.589137 34.376038 0.600836
2004-07-29 09:47:33 51°18.608 2°33.741 18.616784 4.589137 34.376038 0.600836
2004-07-29 09:47:38 51°18.623 2°33.762 18.625162 4.588821 34.370989 0.634546
2004-07-29 09:47:41 51°18.633 2°33.775 18.633745 4.589137 34.369458 0.567127
2004-07-29 09:47:48 51°18.654 2°33.805 18.652104 4.58977 34.366397 0.600836
2004-07-29 09:47:53 51°18.669 2°33.828 18.67949 4.590508 34.364223 0.499708
2004-07-29 09:47:58 51°18.684 2°33.85 18.703155 4.591563 34.36351 0.533418
2004-07-29 09:48:02 51°18.696 2°33.867 18.703155 4.591563 34.36351 0.533418
2004-07-29 09:48:08 51°18.714 2°33.894 18.727224 4.592301 34.360144 0.499708
2004-07-29 09:48:13 51°18.729 2°33.916 18.739379 4.593462 34.362706 0.432289
2004-07-29 09:48:17 51°18.741 2°33.934 18.759275 4.594727 34.3572 0.465999
2004-07-29 09:48:21 51°18.754 2°33.951 18.779537 4.596837 34.356383 0.432289
2004-07-29 09:48:28 51°18.776 2°33.981 18.785507 4.599052 34.357645 0.432289
2004-07-29 09:48:33 51°18.791 2°34.003 18.785507 4.599052 34.357645 0.432289
2004-07-29 09:48:38 51°18.806 2°34.025 18.793535 4.601056 34.35893 0.432289
2004-07-29 09:48:41 51°18.815 2°34.038 18.806914 4.602849 34.358452 0.465999
2004-07-29 09:48:48 51°18.836 2°34.069 18.822512 4.604431 34.356212 0.432289
2004-07-29 09:48:53 51°18.851 2°34.091 18.835802 4.606013 34.357544 0.39858
2004-07-29 09:48:58 51°18.867 2°34.114 18.851188 4.60749 34.360373 0.39858
2004-07-29 09:49:01 51°18.876 2°34.127 18.851188 4.60749 34.360373 0.39858
2004-07-29 09:49:08 51°18.897 2°34.158 18.857728 4.608228 34.357627 0.364871
2004-07-29 09:49:13 51°18.912 2°34.18 18.858427 4.609494 34.3581 0.364871
2004-07-29 09:49:18 51°18.928 2°34.202 18.852627 4.610549 34.358 0.39858
2004-07-29 09:49:21 51°18.937 2°34.215 18.847403 4.612236 34.357841 0.39858
2004-07-29 09:49:28 51°18.958 2°34.246 18.842714 4.612975 34.354508 0.364871
2004-07-29 09:49:33 51°18.972 2°34.269 18.842714 4.612975 34.354508 0.364871
2004-07-29 09:49:38 51°18.987 2°34.292 18.839422 4.614135 34.357665 0.39858
2004-07-29 09:49:42 51°18.999 2°34.31 18.849666 4.614346 34.356459 0.39858
2004-07-29 09:49:48 51°19.016 2°34.337 18.84259 4.614346 34.357645 0.39858
2004-07-29 09:49:53 51°19.031 2°34.36 18.82926 4.613185 34.350336 0.432289
2004-07-29 09:49:57 51°19.043 2°34.378 18.816215 4.613291 34.353589 0.39858
2004-07-29 09:50:01 51°19.054 2°34.397 18.816215 4.613291 34.353589 0.39858
2004-07-29 09:50:08 51°19.075 2°34.428 18.813252 4.612975 34.350948 0.432289
2004-07-29 09:50:13 51°19.09 2°34.451 18.812059 4.612869 34.348881 0.39858
2004-07-29 09:50:16 51°19.099 2°34.465 18.806091 4.612131 34.346278 0.432289
2004-07-29 09:50:21 51°19.114 2°34.488 18.798805 4.610759 34.341359 0.465999
2004-07-29 09:50:28 51°19.134 2°34.519 18.79864 4.609494 34.338506 0.533418
2004-07-29 09:50:33 51°19.149 2°34.542 18.79864 4.609494 34.338506 0.533418
2004-07-29 09:50:38 51°19.164 2°34.565 18.79794 4.608861 34.337376 0.533418
2004-07-29 09:50:41 51°19.173 2°34.579 18.792012 4.607911 34.333603 0.533418
2004-07-29 09:50:48 51°19.194 2°34.61 18.7958 4.607278 34.332472 0.533418
2004-07-29 09:50:53 51°19.208 2°34.633 18.802304 4.606118 34.326937 0.567127
2004-07-29 09:50:58 51°19.223 2°34.656 18.79687 4.606118 34.327531 0.533418
2004-07-29 09:51:01 51°19.232 2°34.669 18.79687 4.606118 34.327531 0.533418
2004-07-29 09:51:08 51°19.253 2°34.701 18.789789 4.605591 34.3255 0.567127
2004-07-29 09:51:13 51°19.267 2°34.724 18.784272 4.605169 34.323756 0.567127
2004-07-29 09:51:18 51°19.282 2°34.747 18.780731 4.604958 34.320214 0.600836
2004-07-29 09:51:22 51°19.294 2°34.765 18.777231 4.605063 34.319314 0.634546
2004-07-29 09:51:28 51°19.311 2°34.792 18.778343 4.604536 34.317283 0.600836
2004-07-29 09:51:33 51°19.326 2°34.815 18.778343 4.604536 34.317283 0.600836
2004-07-29 09:51:37 51°19.338 2°34.834 18.776819 4.604008 34.317626 0.634546
2004-07-29 09:51:41 51°19.349 2°34.852 18.781266 4.603481 34.316782 0.668255
2004-07-29 09:51:48 51°19.37 2°34.885 18.78316 4.602743 34.313581 0.668255
2004-07-29 09:51:53 51°19.384 2°34.908 18.781678 4.60211 34.310074 0.600836
2004-07-29 09:51:58 51°19.399 2°34.931 18.778425 4.601688 34.307737 0.600836
2004-07-29 09:52:01 51°19.407 2°34.945 18.778425 4.601688 34.307737 0.600836
2004-07-29 09:52:08 51°19.427 2°34.978 18.774431 4.601477 34.307161 0.634546
2004-07-29 09:52:13 51°19.441 2°35.003 18.774719 4.601688 34.306549 0.735674
2004-07-29 09:52:18 51°19.454 2°35.028 18.773813 4.601688 34.305362 0.701965
2004-07-29 09:52:21 51°19.462 2°35.043 18.769201 4.601266 34.301838 0.701965
2004-07-29 09:52:28 51°19.48 2°35.078 18.76533 4.60116 34.30333 0.701965
2004-07-29 09:52:33 51°19.492 2°35.104 18.76533 4.60116 34.30333 0.701965
2004-07-29 09:52:38 51°19.504 2°35.131 18.763641 4.600422 34.299535 0.735674
2004-07-29 09:52:41 51°19.511 2°35.147 18.769695 4.600105 34.297485 0.769383
2004-07-29 09:52:48 51°19.527 2°35.185 18.768789 4.600105 34.299265 0.701965
2004-07-29 09:52:53 51°19.539 2°35.212 18.774472 4.599367 34.294876 0.769383
2004-07-29 09:52:57 51°19.548 2°35.234 18.773731 4.599051 34.294606 0.93793
2004-07-29 09:53:02 51°19.56 2°35.262 18.773731 4.599051 34.294606 0.93793
2004-07-29 09:53:08 51°19.573 2°35.295 18.775707 4.598418 34.289317 0.803093
2004-07-29 09:53:13 51°19.584 2°35.323 18.78069 4.59884 34.292843 0.769383
2004-07-29 09:53:18 51°19.594 2°35.351 18.780443 4.598418 34.288131 0.803093
2004-07-29 09:53:22 51°19.602 2°35.374 18.782625 4.598418 34.286944 0.904221
2004-07-29 09:53:28 51°19.614 2°35.408 18.782172 4.598418 34.285164 0.836802
2004-07-29 09:53:33 51°19.625 2°35.437 18.782172 4.598418 34.285164 0.836802
2004-07-29 09:53:38 51°19.635 2°35.465 18.786989 4.598207 34.281029 0.803093
2004-07-29 09:53:42 51°19.643 2°35.488 18.787442 4.598523 34.281893 0.803093
2004-07-29 09:53:48 51°19.655 2°35.523 18.786907 4.598523 34.280707 0.769383
2004-07-29 09:53:53 51°19.665 2°35.552 18.790612 4.598206 34.27747 0.769383
2004-07-29 09:53:57 51°19.672 2°35.575 18.794729 4.598312 34.276573 0.769383
2004-07-29 09:54:02 51°19.682 2°35.604 18.794729 4.598312 34.276573 0.769383
2004-07-29 09:54:08 51°19.693 2°35.639 18.796005 4.598628 34.276844 0.870512
2004-07-29 09:54:13 51°19.703 2°35.669 18.797035 4.598628 34.276251 0.735674
2004-07-29 09:54:18 51°19.712 2°35.698 18.80148 4.598628 34.275066 0.904221
2004-07-29 09:54:21 51°19.717 2°35.716 18.801686 4.597995 34.267409 0.701965
2004-07-29 09:54:28 51°19.73 2°35.757 18.802839 4.598839 34.272678 0.836802
2004-07-29 09:54:33 51°19.739 2°35.787 18.802839 4.598839 34.272678 0.836802
2004-07-29 09:54:38 51°19.748 2°35.816 18.80395 4.598734 34.270019 0.836802
2004-07-29 09:54:41 51°19.753 2°35.834 18.80572 4.598839 34.270308 0.803093
2004-07-29 09:54:48 51°19.766 2°35.875 18.804444 4.599156 34.269987 0.870512
2004-07-29 09:54:53 51°19.775 2°35.904 18.80535 4.598945 34.267633 0.769383
2004-07-29 09:54:57 51°19.782 2°35.928 18.809177 4.599261 34.268498 0.769383
2004-07-29 09:55:02 51°19.79 2°35.958 18.809177 4.599261 34.268498 0.769383
2004-07-29 09:55:08 51°19.8 2°35.993 18.808601 4.599156 34.267617 0.836802
2004-07-29 09:55:13 51°19.81 2°36.022 18.808807 4.599156 34.266432 0.735674
2004-07-29 09:55:17 51°19.817 2°36.045 18.81317 4.59905 34.264959 0.836802
2004-07-29 09:55:22 51°19.827 2°36.074 18.812594 4.599156 34.264655 0.870512
2004-07-29 09:55:28 51°19.838 2°36.109 18.811688 4.598945 34.261709 0.769383
2004-07-29 09:55:32 51°19.846 2°36.132 18.811688 4.598945 34.261709 0.769383
2004-07-29 09:55:38 51°19.858 2°36.167 18.811235 4.598945 34.261709 0.769383
2004-07-29 09:55:42 51°19.866 2°36.19 18.812717 4.599155 34.262878 0.836802
2004-07-29 09:55:48 51°19.877 2°36.225 18.81284 4.599366 34.262862 0.870512
2004-07-29 09:55:53 51°19.886 2°36.254 18.811359 4.59905 34.259037 0.836802
2004-07-29 09:55:57 51°19.894 2°36.277 18.813952 4.59905 34.259037 0.870512
2004-07-29 09:56:02 51°19.904 2°36.306 18.813952 4.59905 34.259037 0.870512
2004-07-29 09:56:08 51°19.915 2°36.341 18.813499 4.598522 34.255226 0.93793
2004-07-29 09:56:13 51°19.925 2°36.37 18.813622 4.598733 34.255803 0.803093
2004-07-29 09:56:18 51°19.934 2°36.399 18.813252 4.598733 34.256987 0.904221
2004-07-29 09:56:22 51°19.941 2°36.423 18.814981 4.598311 34.252281 0.904221
2004-07-29 09:56:28 51°19.951 2°36.458 18.817491 4.598522 34.25345 0.93793
2004-07-29 09:56:33 51°19.96 2°36.487 18.817491 4.598522 34.25345 0.93793
2004-07-29 09:56:38 51°19.969 2°36.517 18.819137 4.598417 34.25257 0.870512
2004-07-29 09:56:42 51°19.976 2°36.541 18.820495 4.598206 34.251401 0.870512
2004-07-29 09:56:48 51°19.986 2°36.576 18.819302 4.598522 34.252858 0.904221
2004-07-29 09:56:53 51°19.995 2°36.606 18.820125 4.598311 34.249913 0.93793
2004-07-29 09:56:58 51°20.004 2°36.635 18.819672 4.598417 34.250202 0.97164
2004-07-29 09:57:01 51°20.009 2°36.653 18.819672 4.598417 34.250202 0.97164
2004-07-29 09:57:08 51°20.022 2°36.694 18.818849 4.598733 34.251067 0.93793
2004-07-29 09:57:13 51°20.031 2°36.723 18.818314 4.598733 34.250475 0.904221
2004-07-29 09:57:18 51°20.04 2°36.753 18.816133 4.598944 34.251644 0.93793
2004-07-29 09:57:21 51°20.045 2°36.771 18.813458 4.598522 34.248123 0.870512
2004-07-29 09:57:28 51°20.058 2°36.812 18.814775 4.598522 34.248715 0.904221
2004-07-29 09:57:33 51°20.067 2°36.841 18.814775 4.598522 34.248715 0.904221
2004-07-29 09:57:38 51°20.075 2°36.871 18.815598 4.598417 34.247243 0.870512
2004-07-29 09:57:42 51°20.082 2°36.894 18.817944 4.5981 34.245785 0.904221
2004-07-29 09:57:48 51°20.093 2°36.93 18.81531 4.597995 34.246089 0.904221
2004-07-29 09:57:53 51°20.101 2°36.96 18.818849 4.597889 34.246392 0.93793
2004-07-29 09:57:58 51°20.11 2°36.989 18.818767 4.597468 34.242279 0.904221
2004-07-29 09:58:02 51°20.117 2°37.013 18.818767 4.597468 34.242279 0.904221
2004-07-29 09:58:08 51°20.127 2°37.049 18.816586 4.597995 34.245497 0.870512
2004-07-29 09:58:13 51°20.136 2°37.078 18.816421 4.597678 34.243448 0.904221
2004-07-29 09:58:15 51°20.14 2°37.09 18.818767 4.597784 34.244328 0.870512
2004-07-29 09:58:25 51°20.158 2°37.149 18.821935 4.597678 34.242264 0.93793
2004-07-29 09:58:32 51°20.171 2°37.19 18.827573 4.597573 34.241384 0.904221
2004-07-29 09:58:36 51°20.178 2°37.214 18.834527 4.597257 34.240518 0.97164
2004-07-29 09:58:42 51°20.189 2°37.249 18.836008 4.597573 34.241976 0.97164
2004-07-29 09:58:47 51°20.197 2°37.278 18.834527 4.597362 34.239032 0.93793
2004-07-29 09:58:52 51°20.206 2°37.308 18.832922 4.597678 34.239306 0.93793
2004-07-29 09:58:57 51°20.215 2°37.338 18.832922 4.597678 34.239306 0.93793
2004-07-29 09:59:02 51°20.224 2°37.368 18.82605 4.597995 34.237805 0.93793
2004-07-29 09:59:07 51°20.232 2°37.397 18.81852 4.598206 34.236017 0.836802
2004-07-29 09:59:12 51°20.241 2°37.427 18.816215 4.598417 34.236002 0.93793
2004-07-29 09:59:17 51°20.25 2°37.456 18.813705 4.598944 34.23922 0.904221
2004-07-29 09:59:20 51°20.256 2°37.474 18.816503 4.598311 34.236305 0.97164
2004-07-29 09:59:24 51°20.263 2°37.497 18.816503 4.598311 34.236305 0.97164
2004-07-29 09:59:32 51°20.278 2°37.544 18.818767 4.5981 34.238685 0.904221
2004-07-29 09:59:37 51°20.287 2°37.574 18.817409 4.597573 34.238425 0.97164
2004-07-29 09:59:42 51°20.296 2°37.603 18.821689 4.597151 34.237863 0.870512
2004-07-29 09:59:47 51°20.305 2°37.633 18.823211 4.596835 34.236997 1.005349
2004-07-29 09:59:52 51°20.314 2°37.662 18.822224 4.596835 34.235813 0.836802
2004-07-29 09:59:56 51°20.322 2°37.686 18.822224 4.596835 34.235813 0.836802
2004-07-29 10:00:02 51°20.333 2°37.721 18.821771 4.59694 34.235511 0.93793
2004-07-29 10:00:07 51°20.342 2°37.75 18.818849 4.596729 34.23375 0.97164
2004-07-29 10:00:12 51°20.351 2°37.78 18.817038 4.59694 34.234327 0.904221
2004-07-29 10:00:17 51°20.36 2°37.809 18.819878 4.597045 34.233433 0.93793
2004-07-29 10:00:21 51°20.367 2°37.833 18.820248 4.59694 34.233144 0.93793
2004-07-29 10:00:26 51°20.377 2°37.863 18.820248 4.59694 34.233144 0.93793
2004-07-29 10:00:32 51°20.387 2°37.899 18.821689 4.596729 34.231975 1.005349
2004-07-29 10:00:37 51°20.397 2°37.928 18.825845 4.596835 34.234039 1.005349
2004-07-29 10:00:42 51°20.406 2°37.958 18.825474 4.596518 34.23199 0.93793
2004-07-29 10:00:47 51°20.414 2°37.987 18.827573 4.596624 34.232278 1.005349
2004-07-29 10:00:52 51°20.423 2°38.017 18.830577 4.596518 34.230215 1.005349
2004-07-29 10:00:57 51°20.431 2°38.048 18.830577 4.596518 34.230215 1.005349
2004-07-29 10:01:02 51°20.439 2°38.078 18.82712 4.596729 34.230201 0.93793
2004-07-29 10:01:07 51°20.447 2°38.108 18.818931 4.59694 34.23137 0.93793
2004-07-29 10:01:12 51°20.455 2°38.138 18.815804 4.597045 34.230476 1.005349
2004-07-29 10:01:17 51°20.463 2°38.168 18.814075 4.597151 34.230173 0.93793
2004-07-29 10:01:22 51°20.471 2°38.198 18.808354 4.596834 34.22635 0.93793
2004-07-29 10:01:26 51°20.477 2°38.222 18.808354 4.596834 34.22635 0.93793
2004-07-29 10:01:32 51°20.486 2°38.259 18.800863 4.597045 34.231067 1.140187
2004-07-29 10:01:37 51°20.494 2°38.289 18.802386 4.596413 34.228743 0.93793
2004-07-29 10:01:42 51°20.502 2°38.319 18.798064 4.595885 34.226708 0.93793
2004-07-29 10:01:45 51°20.506 2°38.337 18.80004 4.59578 34.229969 0.97164
2004-07-29 10:01:52 51°20.517 2°38.379 18.793618 4.595358 34.229997 1.039059
2004-07-29 10:01:57 51°20.525 2°38.409 18.793618 4.595358 34.229997 1.039059
2004-07-29 10:02:02 51°20.534 2°38.439 18.796294 4.59483 34.227961 1.005349
2004-07-29 10:02:07 51°20.542 2°38.469 18.788266 4.594514 34.227687 0.93793
2004-07-29 10:02:11 51°20.548 2°38.493 18.792836 4.593986 34.225059 1.005349
2004-07-29 10:02:17 51°20.558 2°38.529 18.803621 4.593987 34.225651 0.97164
2004-07-29 10:02:21 51°20.565 2°38.553 18.813952 4.59367 34.225376 0.97164
2004-07-29 10:02:26 51°20.573 2°38.583 18.813952 4.59367 34.225376 0.97164
2004-07-29 10:02:32 51°20.582 2°38.62 18.815022 4.593354 34.22451 1.005349
2004-07-29 10:02:36 51°20.588 2°38.644 18.812594 4.592932 34.222763 0.904221
2004-07-29 10:02:42 51°20.598 2°38.68 18.80288 4.593037 34.220685 0.93793
2004-07-29 10:02:45 51°20.603 2°38.698 18.794894 4.593986 34.223284 1.005349
2004-07-29 10:02:52 51°20.614 2°38.74 18.793412 4.594197 34.219721 0.97164
2004-07-29 10:02:54 51°20.617 2°38.752 18.793412 4.594197 34.219721 0.97164
2004-07-29 10:03:05 51°20.634 2°38.818 18.780896 4.594197 34.21913 0.904221
2004-07-29 10:03:12 51°20.645 2°38.86 18.779043 4.594197 34.22327 0.93793
2004-07-29 10:03:17 51°20.653 2°38.89 18.779619 4.593459 34.22184 1.005349
2004-07-29 10:03:22 51°20.661 2°38.92 18.773401 4.593143 34.222749 0.97164
2004-07-29 10:03:26 51°20.668 2°38.943 18.773401 4.593143 34.222749 0.97164
2004-07-29 10:03:32 51°20.678 2°38.979 18.772701 4.59251 34.221607 0.97164
2004-07-29 10:03:37 51°20.686 2°39.009 18.776737 4.592088 34.222227 0.904221
2004-07-29 10:03:42 51°20.694 2°39.039 18.782625 4.592088 34.224003 0.904221
2004-07-29 10:03:47 51°20.702 2°39.069 18.792177 4.591666 34.222848 0.870512
2004-07-29 10:03:52 51°20.71 2°39.099 18.796664 4.591561 34.224927 0.93793
2004-07-29 10:03:57 51°20.718 2°39.129 18.796664 4.591561 34.224927 0.93793
2004-07-29 10:04:01 51°20.724 2°39.153 18.801686 4.591455 34.224046 0.93793
2004-07-29 10:04:06 51°20.732 2°39.182 18.814857 4.591561 34.223151 0.93793
2004-07-29 10:04:12 51°20.742 2°39.218 18.815763 4.592088 34.222819 0.93793
2004-07-29 10:04:16 51°20.748 2°39.242 18.809342 4.592404 34.221318 0.904221
2004-07-29 10:04:22 51°20.758 2°39.278 18.806626 4.592721 34.219226 0.904221
2004-07-29 10:04:27 51°20.766 2°39.307 18.806626 4.592721 34.219226 0.904221
2004-07-29 10:04:32 51°20.774 2°39.337 18.803539 4.593459 34.221248 0.93793
2004-07-29 10:04:37 51°20.783 2°39.367 18.795306 4.594092 34.219432 0.93793
2004-07-29 10:04:40 51°20.788 2°39.384 18.7923 4.594408 34.22089 0.904221
2004-07-29 10:04:46 51°20.798 2°39.42 18.788719 4.594514 34.222362 0.93793
2004-07-29 10:04:52 51°20.807 2°39.456 18.789419 4.594197 34.222087 0.904221
2004-07-29 10:04:57 51°20.815 2°39.485 18.789419 4.594197 34.222087 0.904221
2004-07-29 10:05:01 51°20.822 2°39.509 18.786619 4.594092 34.222982 0.870512
2004-07-29 10:05:06 51°20.83 2°39.539 18.789419 4.593776 34.225073 0.870512
2004-07-29 10:05:12 51°20.84 2°39.574 18.787113 4.592932 34.221579 0.870512
2004-07-29 10:05:17 51°20.848 2°39.604 18.784725 4.592615 34.220713 0.836802
2004-07-29 10:05:22 51°20.856 2°39.633 18.784643 4.592721 34.221593 0.904221
2004-07-29 10:05:26 51°20.862 2°39.657 18.784643 4.592721 34.221593 0.904221
2004-07-29 10:05:32 51°20.871 2°39.693 18.772537 4.592088 34.218676 0.836802
2004-07-29 10:05:37 51°20.879 2°39.722 18.768542 4.592193 34.220149 0.870512
2004-07-29 10:05:42 51°20.887 2°39.752 18.759605 4.591877 34.218098 0.735674
2004-07-29 10:05:46 51°20.894 2°39.776 18.748071 4.59156 34.216048 0.769383
2004-07-29 10:05:52 51°20.904 2°39.811 18.745806 4.591033 34.214603 0.803093
2004-07-29 10:05:57 51°20.912 2°39.84 18.745806 4.591033 34.214603 0.803093
2004-07-29 10:06:01 51°20.919 2°39.864 18.74218 4.589873 34.21024 0.769383
2004-07-29 10:06:05 51°20.926 2°39.886 18.740244 4.589134 34.208809 0.735674
2004-07-29 10:06:12 51°20.94 2°39.925 18.743622 4.588396 34.209745 0.769383
2004-07-29 10:06:17 51°20.951 2°39.953 18.748524 4.587025 34.20421 0.735674
2004-07-29 10:06:22 51°20.962 2°39.979 18.754786 4.586497 34.203357 0.803093
2004-07-29 10:06:27 51°20.974 2°40.006 18.754786 4.586497 34.203357 0.803093
2004-07-29 10:06:32 51°20.986 2°40.032 18.766648 4.585759 34.199556 0.836802
2004-07-29 10:06:36 51°20.996 2°40.053 18.78279 4.585548 34.198977 0.836802
2004-07-29 10:06:42 51°21.011 2°40.084 18.810001 4.585126 34.195452 0.701965
2004-07-29 10:06:44 51°21.016 2°40.094 18.850941 4.584915 34.191913 0.701965
2004-07-29 10:06:52 51°21.035 2°40.137 18.893831 4.584704 34.184232 0.701965
2004-07-29 10:06:57 51°21.047 2°40.164 18.893831 4.584704 34.184232 0.701965
2004-07-29 10:07:02 51°21.059 2°40.191 18.937556 4.585442 34.183299 0.701965
2004-07-29 10:07:07 51°21.07 2°40.218 18.98766 4.586286 34.176744 0.735674
2004-07-29 10:07:12 51°21.082 2°40.245 19.021808 4.587657 34.16869 0.668255
2004-07-29 10:07:17 51°21.094 2°40.271 19.056103 4.588817 34.153578 0.701965
2004-07-29 10:07:22 51°21.107 2°40.297 19.077058 4.589555 34.12791 0.600836
2004-07-29 10:07:26 51°21.118 2°40.316 19.077058 4.589555 34.12791 0.600836
2004-07-29 10:07:32 51°21.135 2°40.344 19.091038 4.591136 34.104031 0.634546
2004-07-29 10:07:37 51°21.15 2°40.366 19.105302 4.591769 34.074664 0.701965
2004-07-29 10:07:41 51°21.163 2°40.383 19.122882 4.59219 34.046539 0.701965
2004-07-29 10:07:46 51°21.179 2°40.403 19.145046 4.591979 34.022566 0.836802
2004-07-29 10:07:52 51°21.199 2°40.426 19.167325 4.591767 33.999795 0.803093
2004-07-29 10:07:55 51°21.21 2°40.435 19.167325 4.591767 33.999795 0.803093
2004-07-29 10:08:02 51°21.235 2°40.457 19.187919 4.591345 33.982881 0.93793
2004-07-29 10:08:07 51°21.254 2°40.468 19.198889 4.591239 33.968606 0.870512
2004-07-29 10:08:12 51°21.273 2°40.479 19.211371 4.591978 33.959006 0.870512
2004-07-29 10:08:17 51°21.293 2°40.487 19.227411 4.592083 33.943013 0.904221
2004-07-29 10:08:22 51°21.312 2°40.494 19.238906 4.593137 33.934315 0.803093
2004-07-29 10:08:27 51°21.332 2°40.497 19.238906 4.593137 33.934315 0.803093
2004-07-29 10:08:32 51°21.352 2°40.499 19.249827 4.593665 33.925326 0.803093
2004-07-29 10:08:37 51°21.372 2°40.5 19.25907 4.594192 33.916925 0.870512
2004-07-29 10:08:41 51°21.389 2°40.5 19.264632 4.59493 33.913754 0.803093
2004-07-29 10:08:46 51°21.409 2°40.499 19.267535 4.595246 33.903042 0.836802
2004-07-29 10:08:52 51°21.433 2°40.498 19.274486 4.596512 33.903657 0.769383
2004-07-29 10:08:57 51°21.453 2°40.496 19.274486 4.596512 33.903657 0.769383
2004-07-29 10:09:01 51°21.469 2°40.494 19.290184 4.597883 33.905145 0.735674
2004-07-29 10:09:06 51°21.489 2°40.492 19.281436 4.5982 33.899077 0.769383
2004-07-29 10:09:12 51°21.514 2°40.49 19.260624 4.599043 33.900839 0.701965
2004-07-29 10:09:17 51°21.534 2°40.488 19.233834 4.599149 33.896504 0.735674
2004-07-29 10:09:21 51°21.55 2°40.487 19.213376 4.599887 33.897396 0.769383
2004-07-29 10:09:26 51°21.57 2°40.487 19.213376 4.599887 33.897396 0.769383
2004-07-29 10:09:32 51°21.595 2°40.487 19.194141 4.600942 33.899165 0.668255
2004-07-29 10:09:37 51°21.615 2°40.487 19.175473 4.601153 33.903219 0.701965
2004-07-29 10:09:42 51°21.635 2°40.487 19.162247 4.600415 33.911006 0.701965
2004-07-29 10:09:46 51°21.651 2°40.488 19.144964 4.599149 33.914443 0.735674
2004-07-29 10:09:52 51°21.676 2°40.488 19.137058 4.597989 33.920495 0.735674
2004-07-29 10:09:56 51°21.692 2°40.489 19.137058 4.597989 33.920495 0.735674
2004-07-29 10:10:02 51°21.716 2°40.49 19.143817 4.596829 33.923655 0.769383
2004-07-29 10:10:05 51°21.728 2°40.49 19.1448 4.596196 33.932341 0.735674
2004-07-29 10:10:12 51°21.756 2°40.491 19.161592 4.595036 33.933188 0.769383
2004-07-29 10:10:17 51°21.777 2°40.491 19.143161 4.59472 33.942763 0.803093
2004-07-29 10:10:22 51°21.797 2°40.49 19.133125 4.593981 33.943042 0.803093
2004-07-29 10:10:24 51°21.805 2°40.49 19.133125 4.593981 33.943042 0.803093
2004-07-29 10:10:32 51°21.837 2°40.489 19.104933 4.594087 33.945077 0.735674
2004-07-29 10:10:37 51°21.857 2°40.488 19.101367 4.595036 33.949449 0.735674
2004-07-29 10:10:42 51°21.877 2°40.487 19.103663 4.596197 33.957309 0.668255
2004-07-29 10:10:47 51°21.897 2°40.486 19.110507 4.596513 33.966323 0.836802
2004-07-29 10:10:52 51°21.918 2°40.485 19.114564 4.595986 33.973588 0.735674
2004-07-29 10:10:57 51°21.938 2°40.484 19.114564 4.595986 33.973588 0.735674
2004-07-29 10:11:02 51°21.958 2°40.483 19.111695 4.59567 33.981442 0.735674
2004-07-29 10:11:04 51°21.966 2°40.482 19.101367 4.595459 33.987264 0.803093
2004-07-29 10:11:12 51°21.998 2°40.481 19.085463 4.595775 33.989886 0.735674
2004-07-29 10:11:17 51°22.018 2°40.48 19.072548 4.596197 33.991052 0.769383
2004-07-29 10:11:22 51°22.039 2°40.479 19.058359 4.596197 33.99047 0.668255
2004-07-29 10:11:25 51°22.051 2°40.479 19.058359 4.596197 33.99047 0.668255
2004-07-29 10:11:32 51°22.079 2°40.478 19.033994 4.596092 33.991926 0.701965
2004-07-29 10:11:37 51°22.099 2°40.477 19.013149 4.59567 33.993672 0.701965
2004-07-29 10:11:42 51°22.119 2°40.476 19.004531 4.594615 33.992505 0.634546
2004-07-29 10:11:46 51°22.135 2°40.476 18.996609 4.593244 33.993961 0.668255
2004-07-29 10:11:52 51°22.16 2°40.475 19.010112 4.59124 33.991336 0.735674
2004-07-29 10:11:57 51°22.18 2°40.475 19.010112 4.59124 33.991336 0.735674
2004-07-29 10:12:02 51°22.2 2°40.474 19.027963 4.59008 33.995713 0.668255
2004-07-29 10:12:05 51°22.212 2°40.474 19.046916 4.588498 33.99601 0.701965
2004-07-29 10:12:12 51°22.24 2°40.474 19.06652 4.586388 33.988425 0.836802
2004-07-29 10:12:17 51°22.26 2°40.474 19.084028 4.58565 33.985798 0.836802
2004-07-29 10:12:22 51°22.281 2°40.473 19.089808 4.585861 33.982295 0.769383
2004-07-29 10:12:27 51°22.301 2°40.473 19.089808 4.585861 33.982295 0.769383
2004-07-29 10:12:32 51°22.321 2°40.473 19.087799 4.586177 33.976166 0.836802
2004-07-29 10:12:37 51°22.341 2°40.473 19.078821 4.587232 33.973251 0.735674
2004-07-29 10:12:42 51°22.361 2°40.473 19.072015 4.588814 33.970632 0.735674
2004-07-29 10:12:46 51°22.377 2°40.473 19.069308 4.589657 33.965974 0.735674
2004-07-29 10:12:52 51°22.402 2°40.472 19.070128 4.59029 33.965979 0.735674
2004-07-29 10:12:57 51°22.422 2°40.472 19.070128 4.59029 33.965979 0.735674
2004-07-29 10:13:02 51°22.442 2°40.471 19.068242 4.590818 33.969185 0.701965
2004-07-29 10:13:07 51°22.462 2°40.47 19.063485 4.589868 33.965393 0.735674
2004-07-29 10:13:12 51°22.482 2°40.469 19.056021 4.589341 33.964516 0.803093
2004-07-29 10:13:17 51°22.503 2°40.468 19.043757 4.588919 33.963348 0.769383
2004-07-29 10:13:22 51°22.523 2°40.467 19.038096 4.588708 33.962764 0.735674
2004-07-29 10:13:25 51°22.535 2°40.467 19.038096 4.588708 33.962764 0.735674
2004-07-29 10:13:32 51°22.563 2°40.467 19.038712 4.588181 33.959556 0.701965
2004-07-29 10:13:37 51°22.584 2°40.467 19.029932 4.587653 33.957514 0.735674
2004-07-29 10:13:42 51°22.604 2°40.467 19.015529 4.586915 33.957217 0.735674
2004-07-29 10:13:46 51°22.62 2°40.467 19.006131 4.58586 33.955462 0.735674
2004-07-29 10:13:52 51°22.644 2°40.467 19.004531 4.584805 33.950209 0.769383
2004-07-29 10:13:57 51°22.665 2°40.467 19.004531 4.584805 33.950209 0.769383
2004-07-29 10:14:01 51°22.681 2°40.468 19.020659 4.584172 33.950204 0.769383
2004-07-29 10:14:07 51°22.705 2°40.468 19.031983 4.583223 33.947574 0.769383
2004-07-29 10:14:12 51°22.726 2°40.467 19.039901 4.581957 33.945233 0.769383
2004-07-29 10:14:17 51°22.746 2°40.467 19.043265 4.581008 33.943185 0.735674
2004-07-29 10:14:22 51°22.766 2°40.467 19.035142 4.580481 33.938808 0.735674
2004-07-29 10:14:26 51°22.782 2°40.466 19.035142 4.580481 33.938808 0.735674
2004-07-29 10:14:32 51°22.806 2°40.466 19.018648 4.580586 33.934436 0.769383
2004-07-29 10:14:37 51°22.826 2°40.465 18.999359 4.581008 33.930944 0.735674
2004-07-29 10:14:42 51°22.847 2°40.465 18.98454 4.581113 33.926575 0.735674
2004-07-29 10:14:45 51°22.859 2°40.464 18.97021 4.581535 33.92891 0.735674
2004-07-29 10:14:52 51°22.887 2°40.464 18.96713 4.581008 33.929196 0.701965
2004-07-29 10:14:57 51°22.907 2°40.463 18.96713 4.581008 33.929196 0.701965
2004-07-29 10:15:02 51°22.927 2°40.463 18.948936 4.580586 33.933271 0.803093
2004-07-29 10:15:04 51°22.935 2°40.463 18.931681 4.579742 33.937927 0.803093
2004-07-29 10:15:12 51°22.968 2°40.463 18.912121 4.57911 33.945507 0.769383
2004-07-29 10:15:17 51°22.988 2°40.463 18.901764 4.578266 33.946087 0.735674
2004-07-29 10:15:22 51°23.008 2°40.463 18.900408 4.577738 33.951632 0.769383
2004-07-29 10:15:27 51°23.028 2°40.463 18.900408 4.577738 33.951632 0.769383
2004-07-29 10:15:32 51°23.049 2°40.463 18.902874 4.577211 33.956013 0.870512
2004-07-29 10:15:37 51°23.069 2°40.463 18.905915 4.576368 33.962443 0.904221
2004-07-29 10:15:41 51°23.085 2°40.463 18.922231 4.574996 33.966248 0.870512
2004-07-29 10:15:46 51°23.106 2°40.463 18.923957 4.574469 33.970054 0.904221
2004-07-29 10:15:52 51°23.13 2°40.463 18.917998 4.574047 33.968885 0.803093
2004-07-29 10:15:56 51°23.146 2°40.463 18.917998 4.574047 33.968885 0.803093
2004-07-29 10:16:02 51°23.17 2°40.464 18.913108 4.573942 33.969764 0.904221
2004-07-29 10:16:05 51°23.182 2°40.464 18.924121 4.573625 33.963035 0.803093
2004-07-29 10:16:12 51°23.211 2°40.464 18.929011 4.573731 33.958646 0.870512
2004-07-29 10:16:17 51°23.231 2°40.464 18.939159 4.573625 33.955429 0.803093
2004-07-29 10:16:22 51°23.251 2°40.463 18.94836 4.573942 33.960401 0.769383
2004-07-29 10:16:27 51°23.271 2°40.463 18.94836 4.573942 33.960401 0.769383
2004-07-29 10:16:32 51°23.292 2°40.463 18.952345 4.573731 33.958061 0.803093
2004-07-29 10:16:35 51°23.304 2°40.462 18.948196 4.573625 33.954259 0.93793
2004-07-29 10:16:41 51°23.328 2°40.462 18.93998 4.573519 33.948704 0.904221
2004-07-29 10:16:47 51°23.353 2°40.463 18.955959 4.573836 33.945489 0.735674
2004-07-29 10:16:52 51°23.373 2°40.465 18.9629 4.573941 33.941691 0.803093
2004-07-29 10:16:57 51°23.393 2°40.471 18.9629 4.573941 33.941691 0.803093
2004-07-29 10:17:02 51°23.412 2°40.478 18.958095 4.574258 33.940816 0.836802
2004-07-29 10:17:07 51°23.432 2°40.487 18.928682 4.574258 33.942568 0.870512
2004-07-29 10:17:12 51°23.451 2°40.496 18.895639 4.57468 33.945491 0.870512
2004-07-29 10:17:17 51°23.471 2°40.507 18.882155 4.575207 33.944032 0.904221
2004-07-29 10:17:22 51°23.49 2°40.518 18.86875 4.576367 33.949585 0.836802
2004-07-29 10:17:27 51°23.51 2°40.53 18.86875 4.576367 33.949585 0.836802
2004-07-29 10:17:32 51°23.529 2°40.542 18.85999 4.576578 33.956012 0.93793
2004-07-29 10:17:37 51°23.547 2°40.557 18.840451 4.577106 33.977355 0.97164
2004-07-29 10:17:41 51°23.562 2°40.569 18.83284 4.576368 33.987019 0.97164
2004-07-29 10:17:45 51°23.576 2°40.583 18.822923 4.575208 33.991424 1.072768
2004-07-29 10:17:52 51°23.601 2°40.609 18.818314 4.573626 33.989391 1.005349
2004-07-29 10:17:57 51°23.617 2°40.629 18.818314 4.573626 33.989391 1.005349
2004-07-29 10:18:02 51°23.634 2°40.649 18.84004 4.572571 33.991162 1.039059
2004-07-29 10:18:07 51°23.651 2°40.668 18.845017 4.571833 33.994985 1.072768
2004-07-29 10:18:12 51°23.668 2°40.688 18.852257 4.571411 34.000273 1.106477
2004-07-29 10:18:17 51°23.685 2°40.708 18.863609 4.570567 34.002048 1.173896
2004-07-29 10:18:22 51°23.702 2°40.727 18.86439 4.569618 33.996485 1.173896
2004-07-29 10:18:26 51°23.716 2°40.743 18.86439 4.569618 33.996485 1.173896
2004-07-29 10:18:32 51°23.737 2°40.765 18.874096 4.568668 33.983292 1.207606
2004-07-29 10:18:37 51°23.755 2°40.783 18.879729 4.567719 33.970103 1.173896
2004-07-29 10:18:42 51°23.773 2°40.8 18.890131 4.567297 33.96014 1.207606
2004-07-29 10:18:46 51°23.787 2°40.814 18.904682 4.567719 33.957207 1.140187
2004-07-29 10:18:52 51°23.809 2°40.835 18.915697 4.567824 33.954569 1.140187
2004-07-29 10:18:57 51°23.827 2°40.852 18.915697 4.567824 33.954569 1.140187
2004-07-29 10:19:01 51°23.841 2°40.866 18.933941 4.568773 33.956615 1.106477
2004-07-29 10:19:06 51°23.859 2°40.884 18.94072 4.569301 33.955734 1.072768
2004-07-29 10:19:12 51°23.88 2°40.904 18.932667 4.570355 33.956901 1.140187
2004-07-29 10:19:15 51°23.891 2°40.915 18.924368 4.57141 33.956897 1.106477
2004-07-29 10:19:22 51°23.917 2°40.938 18.897736 4.572148 33.951921 1.072768
2004-07-29 10:19:27 51°23.935 2°40.955 18.897736 4.572148 33.951921 1.072768
2004-07-29 10:19:32 51°23.954 2°40.971 18.865336 4.573731 33.953967 0.97164
2004-07-29 10:19:36 51°23.968 2°40.984 18.831153 4.575524 33.965369 1.005349
2004-07-29 10:19:42 51°23.99 2°41.004 18.813129 4.576262 33.972093 1.005349
2004-07-29 10:19:45 51°24.001 2°41.013 18.809095 4.577528 33.99023 1.005349
2004-07-29 10:19:52 51°24.027 2°41.037 18.81568 4.578056 34.010437 1.039059
2004-07-29 10:19:57 51°24.045 2°41.053 18.81568 4.578056 34.010437 1.039059
2004-07-29 10:20:02 51°24.064 2°41.07 18.811359 4.578267 34.032139 1.039059
2004-07-29 10:20:05 51°24.075 2°41.08 18.80288 4.57774 34.051831 1.039059
2004-07-29 10:20:12 51°24.101 2°41.104 18.810577 4.576897 34.058912 1.072768
2004-07-29 10:20:17 51°24.119 2°41.121 18.806502 4.576264 34.057754 1.106477
2004-07-29 10:20:22 51°24.137 2°41.137 18.809013 4.575736 34.055122 1.039059
2004-07-29 10:20:25 51°24.149 2°41.147 18.809013 4.575736 34.055122 1.039059
2004-07-29 10:20:32 51°24.174 2°41.17 18.804115 4.57542 34.056014 1.072768
2004-07-29 10:20:37 51°24.193 2°41.186 18.806008 4.575209 34.057197 1.072768
2004-07-29 10:20:42 51°24.21 2°41.204 18.809054 4.575104 34.057494 1.106477
2004-07-29 10:20:45 51°24.221 2°41.214 18.826832 4.575104 34.058671 1.106477
2004-07-29 10:20:52 51°24.246 2°41.239 18.8379 4.575104 34.058671 1.140187
2004-07-29 10:20:57 51°24.264 2°41.256 18.8379 4.575104 34.058671 1.140187
2004-07-29 10:21:02 51°24.282 2°41.274 18.838888 4.575104 34.060437 1.173896
2004-07-29 10:21:05 51°24.293 2°41.285 18.829548 4.575209 34.060728 1.140187
2004-07-29 10:21:12 51°24.319 2°41.31 18.821647 4.575736 34.059829 1.173896
2004-07-29 10:21:17 51°24.337 2°41.327 18.805432 4.575947 34.055116 1.106477
2004-07-29 10:21:22 51°24.355 2°41.345 18.797529 4.576475 34.052454 1.106477
2004-07-29 10:21:25 51°24.366 2°41.355 18.797529 4.576475 34.052454 1.106477
2004-07-29 10:21:32 51°24.391 2°41.379 18.788225 4.577635 34.060361 1.106477
2004-07-29 10:21:37 51°24.409 2°41.397 18.78806 4.578479 34.071513 1.106477
2004-07-29 10:21:42 51°24.428 2°41.414 18.787236 4.578479 34.077988 1.106477
2004-07-29 10:21:45 51°24.439 2°41.424 18.79477 4.578796 34.087694 1.072768
2004-07-29 10:21:52 51°24.464 2°41.449 18.781184 4.579429 34.100633 1.039059
2004-07-29 10:21:57 51°24.483 2°41.466 18.781184 4.579429 34.100633 1.039059
2004-07-29 10:22:02 51°24.501 2°41.483 18.761252 4.579745 34.109169 1.005349
2004-07-29 10:22:05 51°24.512 2°41.493 18.739461 4.580484 34.11828 1.039059
2004-07-29 10:22:12 51°24.537 2°41.517 18.727801 4.580906 34.121801 0.97164
2004-07-29 10:22:17 51°24.556 2°41.534 18.706741 4.581961 34.131784 1.005349
2004-07-29 10:22:22 51°24.574 2°41.551 18.69524 4.583121 34.147963 1.005349
2004-07-29 10:22:25 51°24.584 2°41.562 18.69524 4.583121 34.147963 1.005349
2004-07-29 10:22:32 51°24.609 2°41.586 18.686705 4.584387 34.170941 0.93793
2004-07-29 10:22:37 51°24.627 2°41.604 18.663612 4.585021 34.190426 0.93793
2004-07-29 10:22:42 51°24.645 2°41.621 18.625822 4.586287 34.215219 0.904221
2004-07-29 10:22:45 51°24.656 2°41.631 18.590488 4.587025 34.230878 0.93793
2004-07-29 10:22:52 51°24.682 2°41.655 18.568974 4.587869 34.24921 0.870512
2004-07-29 10:22:57 51°24.7 2°41.671 18.568974 4.587869 34.24921 0.870512
2004-07-29 10:23:02 51°24.718 2°41.688 18.553443 4.588714 34.269338 0.803093
2004-07-29 10:23:05 51°24.729 2°41.698 18.530099 4.589769 34.296605 0.836802
2004-07-29 10:23:12 51°24.754 2°41.722 18.516419 4.589875 34.321314 0.803093
2004-07-29 10:23:17 51°24.772 2°41.739 18.493394 4.58977 34.343695 0.701965
2004-07-29 10:23:22 51°24.79 2°41.757 18.494882 4.589243 34.358386 0.701965
2004-07-29 10:23:25 51°24.801 2°41.767 18.494882 4.589243 34.358386 0.701965
2004-07-29 10:23:32 51°24.826 2°41.791 18.478094 4.58861 34.372808 0.668255
2004-07-29 10:23:37 51°24.844 2°41.808 18.459813 4.588505 34.385689 0.600836
2004-07-29 10:23:42 51°24.862 2°41.825 18.446988 4.587977 34.395637 0.600836
2004-07-29 10:23:45 51°24.873 2°41.835 18.439872 4.587028 34.400249 0.533418
2004-07-29 10:23:52 51°24.898 2°41.858 18.430313 4.586817 34.406273 0.499708
2004-07-29 10:23:57 51°24.917 2°41.874 18.430313 4.586817 34.406273 0.499708
2004-07-29 10:24:02 51°24.935 2°41.891 18.419635 4.585763 34.410607 0.465999
2004-07-29 10:24:05 51°24.946 2°41.901 18.411316 4.58513 34.417293 0.567127
2004-07-29 10:24:12 51°24.971 2°41.925 18.387758 4.584497 34.42098 0.499708
2004-07-29 10:24:17 51°24.988 2°41.942 18.382126 4.584392 34.431513 0.465999
2004-07-29 10:24:22 51°25.006 2°41.96 18.35686 4.583654 34.432515 0.432289
2004-07-29 10:24:25 51°25.017 2°41.971 18.35686 4.583654 34.432515 0.432289
2004-07-29 10:24:32 51°25.041 2°41.997 18.34758 4.582915 34.434721 0.432289
2004-07-29 10:24:37 51°25.058 2°42.016 18.339335 4.582916 34.442545 0.39858
2004-07-29 10:24:42 51°25.076 2°42.034 18.323918 4.580595 34.436244 0.465999
2004-07-29 10:24:45 51°25.086 2°42.045 18.315794 4.581228 34.45242 0.432289
2004-07-29 10:24:52 51°25.11 2°42.07 18.320561 4.580279 34.457078 0.364871
2004-07-29 10:24:57 51°25.128 2°42.089 18.320561 4.580279 34.457078 0.364871
2004-07-29 10:25:02 51°25.145 2°42.107 18.331751 4.579435 34.460217 0.364871
2004-07-29 10:25:07 51°25.162 2°42.125 18.341779 4.578591 34.464565 0.364871
2004-07-29 10:25:12 51°25.18 2°42.144 18.344141 4.578064 34.47038 0.331161
2004-07-29 10:25:17 51°25.197 2°42.162 18.353588 4.577537 34.470157 0.364871
2004-07-29 10:25:22 51°25.214 2°42.18 18.352925 4.577537 34.471365 0.39858
2004-07-29 10:25:27 51°25.232 2°42.198 18.352925 4.577537 34.471365 0.39858
2004-07-29 10:25:32 51°25.249 2°42.216 18.34381 4.577642 34.468028 0.364871
2004-07-29 10:25:36 51°25.263 2°42.231 18.334072 4.577959 34.465867 0.364871
2004-07-29 10:25:42 51°25.284 2°42.252 18.324457 4.578486 34.464883 0.364871
2004-07-29 10:25:45 51°25.294 2°42.263 18.314302 4.579224 34.467489 0.364871
2004-07-29 10:25:52 51°25.319 2°42.287 18.30456 4.579435 34.469872 0.364871
2004-07-29 10:25:57 51°25.336 2°42.305 18.30456 4.579435 34.469872 0.364871
2004-07-29 10:26:01 51°25.35 2°42.319 18.303855 4.579541 34.4768 0.331161
2004-07-29 10:26:06 51°25.368 2°42.336 18.295522 4.579014 34.477182 0.331161
2004-07-29 10:26:12 51°25.389 2°42.358 18.293573 4.578908 34.484146 0.331161
2004-07-29 10:26:15 51°25.399 2°42.368 18.296061 4.577854 34.484309 0.331161
2004-07-29 10:26:22 51°25.423 2°42.393 18.29747 4.577537 34.485869 0.331161
2004-07-29 10:26:24 51°25.431 2°42.401 18.29747 4.577537 34.485869 0.331161
2004-07-29 10:26:32 51°25.459 2°42.429 18.2966 4.576904 34.485363 0.331161
2004-07-29 10:26:37 51°25.476 2°42.447 18.294609 4.576799 34.489311 0.297452
2004-07-29 10:26:42 51°25.494 2°42.464 18.294775 4.576166 34.485176 0.364871
2004-07-29 10:26:45 51°25.505 2°42.474 18.296351 4.576377 34.486958 0.331161
2004-07-29 10:26:52 51°25.53 2°42.498 18.291375 4.576271 34.486672 0.39858
2004-07-29 10:26:57 51°25.547 2°42.515 18.291375 4.576271 34.486672 0.39858
2004-07-29 10:27:02 51°25.565 2°42.531 18.293863 4.575955 34.484604 0.39858
2004-07-29 10:27:06 51°25.58 2°42.545 18.298383 4.575639 34.481932 0.364871
2004-07-29 10:27:12 51°25.601 2°42.565 18.303731 4.575639 34.483142 0.39858
2004-07-29 10:27:16 51°25.615 2°42.579 18.313473 4.575322 34.481679 0.364871
2004-07-29 10:27:22 51°25.637 2°42.601 18.32168 4.5749 34.478721 0.364871
2004-07-29 10:27:25 51°25.647 2°42.612 18.32168 4.5749 34.478721 0.364871
2004-07-29 10:27:32 51°25.671 2°42.637 18.326488 4.574584 34.474839 0.331161
2004-07-29 10:27:34 51°25.679 2°42.644 18.335937 4.5749 34.475092 0.364871
2004-07-29 10:27:46 51°25.721 2°42.687 18.338879 4.575216 34.468697 0.364871
2004-07-29 10:27:52 51°25.742 2°42.709 18.337056 4.575216 34.46205 0.364871
2004-07-29 10:27:57 51°25.76 2°42.727 18.337056 4.575216 34.46205 0.364871
2004-07-29 10:28:02 51°25.777 2°42.744 18.342981 4.575638 34.461383 0.364871
2004-07-29 10:28:05 51°25.788 2°42.755 18.349445 4.57606 34.458301 0.331161
2004-07-29 10:28:12 51°25.812 2°42.78 18.355618 4.576271 34.458269 0.39858
2004-07-29 10:28:16 51°25.827 2°42.795 18.360879 4.576376 34.457348 0.364871
2004-07-29 10:28:22 51°25.848 2°42.816 18.371648 4.576271 34.455251 0.331161
2004-07-29 10:28:26 51°25.862 2°42.831 18.371648 4.576271 34.455251 0.331161
2004-07-29 10:28:32 51°25.883 2°42.851 18.382789 4.576271 34.451026 0.331161
2004-07-29 10:28:37 51°25.901 2°42.869 18.39753 4.576482 34.449185 0.331161
2004-07-29 10:28:42 51°25.919 2°42.886 18.413013 4.576904 34.447314 0.364871
2004-07-29 10:28:46 51°25.933 2°42.9 18.426547 4.577114 34.444871 0.364871
2004-07-29 10:28:52 51°25.955 2°42.921 18.441444 4.577853 34.443258 0.364871
2004-07-29 10:28:57 51°25.972 2°42.939 18.441444 4.577853 34.443258 0.364871
2004-07-29 10:29:02 51°25.99 2°42.957 18.445127 4.578486 34.440154 0.39858
2004-07-29 10:29:05 51°26.001 2°42.967 18.442892 4.579435 34.437309 0.364871
2004-07-29 10:29:12 51°26.025 2°42.992 18.433789 4.579962 34.430311 0.331161
2004-07-29 10:29:17 51°26.043 2°43.01 18.422284 4.581017 34.429564 0.331161
2004-07-29 10:29:22 51°26.06 2°43.028 18.402208 4.582071 34.428218 0.364871